Air Quality Table

TIMESTAMP NO2 O3 PM2.5 TEMP HUM AIRPRES WS WD NO
2022-06-26 09:00 4.27 µg/m3 82.43 µg/m3 14.45 µg/m3 32.27 °C N/A 1,001.87 mbar 2.21 m/s 221.1 Deg 0.79 µg/m3
2022-06-26 08:00 4.44 µg/m3 83.28 µg/m3 15.15 µg/m3 30.21 °C N/A 1,002.08 mbar 1.77 m/s 212.1 Deg 0.43 µg/m3
2022-06-26 07:00 18.24 µg/m3 60.33 µg/m3 14.79 µg/m3 28.15 °C N/A 1,001.85 mbar 1.12 m/s 180.15 Deg 1.85 µg/m3
2022-06-26 06:00 32.28 µg/m3 28.8 µg/m3 9.65 µg/m3 25.66 °C N/A 1,001.52 mbar 0.59 m/s 251.14 Deg 2.93 µg/m3
2022-06-26 05:00 19.53 µg/m3 41.39 µg/m3 6.87 µg/m3 25.72 °C N/A 1,001.13 mbar 0.62 m/s 301.85 Deg 0.16 µg/m3
2022-06-26 04:00 9.78 µg/m3 61.69 µg/m3 7.25 µg/m3 26.34 °C N/A 1,000.86 mbar 0.76 m/s 214.88 Deg -0.06 µg/m3
2022-06-26 03:00 5.25 µg/m3 68.12 µg/m3 10.82 µg/m3 26.35 °C N/A 1,000.73 mbar 0.66 m/s 265.68 Deg -0.05 µg/m3
2022-06-26 02:00 17.6 µg/m3 58.81 µg/m3 17.91 µg/m3 26.55 °C N/A 1,000.95 mbar 0.97 m/s 240.42 Deg -0.15 µg/m3
2022-06-26 01:00 41.01 µg/m3 35.57 µg/m3 17.04 µg/m3 26.5 °C N/A 1,001.19 mbar 0.7 m/s 239.8 Deg 1.01 µg/m3
2022-06-26 00:00 46.53 µg/m3 26.05 µg/m3 15.7 µg/m3 26.89 °C N/A 1,001.43 mbar 0.46 m/s 248.6 Deg 3.04 µg/m3
2022-06-25 23:00 52.69 µg/m3 21.86 µg/m3 15.38 µg/m3 27.33 °C N/A 1,001.73 mbar 0.46 m/s 245.83 Deg 1.9 µg/m3
2022-06-25 22:00 41.17 µg/m3 35.64 µg/m3 12.71 µg/m3 27.92 °C N/A 1,001.80 mbar 0.39 m/s 239.66 Deg 0.39 µg/m3
2022-06-25 21:00 26.71 µg/m3 60.67 µg/m3 9.93 µg/m3 28.7 °C N/A 1,001.61 mbar 0.45 m/s 259.9 Deg 0.49 µg/m3
2022-06-25 20:00 9.78 µg/m3 82.49 µg/m3 9.74 µg/m3 29.05 °C N/A 1,001.13 mbar 0.74 m/s 249.19 Deg 0.32 µg/m3
2022-06-25 19:00 9.1 µg/m3 83.35 µg/m3 8.87 µg/m3 30.36 °C N/A 1,000.97 mbar 1.31 m/s 222.83 Deg 1.05 µg/m3
2022-06-25 18:00 6.37 µg/m3 88.03 µg/m3 7.7 µg/m3 31.46 °C N/A 1,000.83 mbar 1.55 m/s 202.75 Deg 0.69 µg/m3
2022-06-25 17:00 4.2 µg/m3 90.01 µg/m3 9.08 µg/m3 32.46 °C N/A 1,000.84 mbar 1.79 m/s 223.67 Deg 0.69 µg/m3
2022-06-25 16:00 4.71 µg/m3 94.78 µg/m3 8.87 µg/m3 32.77 °C N/A 1,001.24 mbar 2.13 m/s 220 Deg 0.72 µg/m3
2022-06-25 15:00 15.11 µg/m3 97.03 µg/m3 8.61 µg/m3 34.16 °C N/A 1,001.31 mbar 2.22 m/s 196.95 Deg 2.03 µg/m3
2022-06-25 14:00 22.42 µg/m3 73.89 µg/m3 6.83 µg/m3 34.69 °C N/A 1,001.63 mbar 1.68 m/s 212.61 Deg 4.04 µg/m3
2022-06-25 13:00 22.19 µg/m3 69.45 µg/m3 5.09 µg/m3 34.37 °C N/A 1,002.05 mbar 1.36 m/s 223.92 Deg 4.63 µg/m3
2022-06-25 12:00 18.52 µg/m3 67.42 µg/m3 6.62 µg/m3 33.64 °C N/A 1,002.35 mbar 1.58 m/s 163.95 Deg 3.89 µg/m3
2022-06-25 11:00 18.38 µg/m3 63.24 µg/m3 16.61 µg/m3 33.21 °C N/A 1,002.38 mbar 1.51 m/s 93.57 Deg 3.83 µg/m3
2022-06-25 10:00 36.77 µg/m3 63.6 µg/m3 15.02 µg/m3 34.96 °C N/A 1,002.04 mbar 1.16 m/s 231.58 Deg 7.36 µg/m3
2022-06-25 09:00 43.24 µg/m3 48.54 µg/m3 10.52 µg/m3 33.55 °C N/A 1,001.92 mbar 0.69 m/s 243.13 Deg 13.06 µg/m3
2022-06-25 08:00 40.43 µg/m3 36.29 µg/m3 11.39 µg/m3 31.21 °C N/A 1,001.81 mbar 0.7 m/s 222.5 Deg 13.06 µg/m3
2022-06-25 07:00 35.25 µg/m3 33.12 µg/m3 12.52 µg/m3 28.73 °C N/A 1,001.67 mbar 0.43 m/s 176.79 Deg 6.3 µg/m3
2022-06-25 06:00 49.68 µg/m3 7.45 µg/m3 7.72 µg/m3 25.46 °C N/A 1,001.44 mbar 0.46 m/s 329.18 Deg 16.74 µg/m3
2022-06-25 05:00 39.91 µg/m3 9.48 µg/m3 6.07 µg/m3 24.73 °C N/A 1,001.17 mbar 0.47 m/s 287.91 Deg 4.04 µg/m3
2022-06-25 04:00 41.82 µg/m3 11.02 µg/m3 6.32 µg/m3 24.82 °C N/A 1,001.01 mbar 0.37 m/s 285.65 Deg 3 µg/m3
2022-06-25 03:00 34.34 µg/m3 17.17 µg/m3 5.58 µg/m3 25.03 °C N/A 1,001.12 mbar 0.43 m/s 297.02 Deg 0.65 µg/m3
2022-06-25 02:00 27.18 µg/m3 26.45 µg/m3 5.3 µg/m3 25.04 °C N/A 1,001.22 mbar 0.59 m/s 301.84 Deg -0.28 µg/m3
2022-06-25 01:00 24.25 µg/m3 29.59 µg/m3 10.84 µg/m3 25.92 °C N/A 1,001.51 mbar 0.65 m/s 294.42 Deg -0.29 µg/m3
2022-06-25 00:00 43.12 µg/m3 17.69 µg/m3 18.29 µg/m3 27.23 °C N/A 1,001.49 mbar 0.79 m/s 264.88 Deg 0.94 µg/m3
2022-06-24 23:00 53.46 µg/m3 6.08 µg/m3 19.52 µg/m3 27.57 °C N/A 1,001.49 mbar 0.38 m/s 291.43 Deg 13.19 µg/m3
2022-06-24 22:00 53.74 µg/m3 8.09 µg/m3 8.29 µg/m3 27.87 °C N/A 1,001.32 mbar 0.44 m/s 243.48 Deg 13.74 µg/m3
2022-06-24 21:00 21.86 µg/m3 35.64 µg/m3 5.58 µg/m3 28.46 °C N/A 1,001.01 mbar 0.5 m/s 201.66 Deg 0.84 µg/m3
2022-06-24 20:00 20.75 µg/m3 43.72 µg/m3 4.94 µg/m3 29.61 °C N/A 1,000.62 mbar 0.94 m/s 305.99 Deg 0.3 µg/m3
2022-06-24 19:00 7.57 µg/m3 57.27 µg/m3 5.58 µg/m3 32.35 °C N/A 1,000.15 mbar 0.66 m/s 345.74 Deg 0.38 µg/m3
2022-06-24 18:00 5.86 µg/m3 60.11 µg/m3 4.43 µg/m3 34.19 °C N/A 1,000.10 mbar 0.88 m/s 320.13 Deg 0.57 µg/m3
2022-06-24 17:00 3.52 µg/m3 79.76 µg/m3 5.53 µg/m3 36.24 °C N/A 1,000.12 mbar 1.03 m/s 340.52 Deg 0.38 µg/m3
2022-06-24 16:00 2.72 µg/m3 83.42 µg/m3 8.29 µg/m3 35.96 °C N/A 1,000.53 mbar 1.2 m/s 337.1 Deg 0.36 µg/m3
2022-06-24 15:00 3.28 µg/m3 84.8 µg/m3 4.64 µg/m3 35.86 °C N/A 1,001.05 mbar 1.48 m/s 260.38 Deg 0.38 µg/m3
2022-06-24 14:00 4.04 µg/m3 80.68 µg/m3 2.67 µg/m3 35.03 °C N/A 1,001.32 mbar 1.5 m/s 329.93 Deg 0.61 µg/m3
2022-06-24 13:00 5.67 µg/m3 80.29 µg/m3 2.5 µg/m3 34.27 °C N/A 1,001.54 mbar 1.52 m/s 333.15 Deg 0.94 µg/m3
2022-06-24 12:00 6.41 µg/m3 85.59 µg/m3 3.01 µg/m3 33.16 °C N/A 1,001.72 mbar 1.36 m/s 333.87 Deg 1.01 µg/m3
2022-06-24 11:00 3.43 µg/m3 92.43 µg/m3 1.78 µg/m3 32.47 °C N/A 1,001.89 mbar 1.46 m/s 333.72 Deg 0.51 µg/m3
2022-06-24 10:00 4.36 µg/m3 97.09 µg/m3 4.3 µg/m3 32.33 °C N/A 1,001.77 mbar 1.36 m/s 339.8 Deg 0.5 µg/m3
2022-06-24 09:00 7.21 µg/m3 92.4 µg/m3 4.86 µg/m3 32.37 °C N/A 1,001.47 mbar 1.15 m/s 332.67 Deg 0.7 µg/m3
2022-06-24 08:00 9.35 µg/m3 92.76 µg/m3 7.32 µg/m3 31.66 °C N/A 1,001.16 mbar 0.97 m/s 332.72 Deg 0.79 µg/m3
2022-06-24 07:00 36.53 µg/m3 67.05 µg/m3 5.77 µg/m3 29.36 °C N/A 1,000.94 mbar 0.73 m/s 322.78 Deg 2.92 µg/m3
2022-06-24 06:00 28.08 µg/m3 71.95 µg/m3 2.48 µg/m3 27.57 °C N/A 1,000.83 mbar 1.06 m/s 304.06 Deg 1.19 µg/m3
2022-06-24 05:00 5.48 µg/m3 101.15 µg/m3 1.52 µg/m3 27.85 °C N/A 1,000.80 mbar 1.24 m/s 299.21 Deg 0.21 µg/m3
2022-06-24 04:00 2.14 µg/m3 101.98 µg/m3 0.78 µg/m3 27.99 °C N/A 1,000.84 mbar 1.49 m/s 295.73 Deg 0.17 µg/m3
2022-06-24 03:00 1.66 µg/m3 98.11 µg/m3 2.52 µg/m3 27.68 °C N/A 1,001.35 mbar 1.17 m/s 306.02 Deg 0 µg/m3
2022-06-24 02:00 6.05 µg/m3 77.44 µg/m3 4.71 µg/m3 25.95 °C N/A 1,001.84 mbar 0.53 m/s 257.75 Deg 0.25 µg/m3
2022-06-24 01:00 9.28 µg/m3 70.67 µg/m3 7 µg/m3 25.47 °C N/A 1,002.32 mbar 0.7 m/s 302.6 Deg 0.06 µg/m3
2022-06-24 00:00 23.12 µg/m3 55.77 µg/m3 6.77 µg/m3 25.37 °C N/A 1,002.63 mbar 0.5 m/s 277.69 Deg 0 µg/m3
2022-06-23 23:00 14.8 µg/m3 65.59 µg/m3 6.17 µg/m3 25.63 °C N/A 1,002.95 mbar 0.72 m/s 294.8 Deg 0.11 µg/m3
2022-06-23 22:00 5.62 µg/m3 82.06 µg/m3 5.49 µg/m3 26.41 °C N/A 1,002.85 mbar 0.83 m/s 343.19 Deg 0.26 µg/m3
2022-06-23 21:00 6.02 µg/m3 90.37 µg/m3 5.11 µg/m3 28.25 °C N/A 1,002.34 mbar 0.9 m/s 188.29 Deg 0.19 µg/m3
2022-06-23 20:00 5.63 µg/m3 93.89 µg/m3 5.75 µg/m3 29.19 °C N/A 1,001.48 mbar 0.98 m/s 290.9 Deg 0.35 µg/m3
2022-06-23 19:00 9.2 µg/m3 86.92 µg/m3 6.55 µg/m3 29.19 °C N/A 1,001.35 mbar 1.32 m/s 308.48 Deg 0.41 µg/m3
2022-06-23 18:00 4.75 µg/m3 94.75 µg/m3 8.27 µg/m3 30.71 °C N/A 1,001.12 mbar 1.89 m/s 304.96 Deg 0.4 µg/m3
2022-06-23 17:00 4.9 µg/m3 93.05 µg/m3 8.27 µg/m3 31.49 °C N/A 1,001.56 mbar 1.51 m/s 313.77 Deg 0.5 µg/m3
2022-06-23 16:00 3.51 µg/m3 94.14 µg/m3 7.15 µg/m3 31.49 °C N/A 1,002.04 mbar 1.93 m/s 307.97 Deg 0.59 µg/m3
2022-06-23 15:00 2.67 µg/m3 95.21 µg/m3 7.34 µg/m3 31.41 °C N/A 1,002.14 mbar 2.08 m/s 320.95 Deg 0.64 µg/m3
2022-06-23 14:00 2.85 µg/m3 95.78 µg/m3 7.06 µg/m3 31.04 °C N/A 1,002.48 mbar 2.01 m/s 344 Deg 0.57 µg/m3
2022-06-23 13:00 6.85 µg/m3 92.55 µg/m3 6.6 µg/m3 31.85 °C N/A 1,002.49 mbar 1.76 m/s 331.25 Deg 1.4 µg/m3
2022-06-23 12:00 11.62 µg/m3 94.88 µg/m3 4.45 µg/m3 32.34 °C N/A 1,002.53 mbar 1.77 m/s 330.01 Deg 4 µg/m3
2022-06-23 11:00 5.21 µg/m3 100.77 µg/m3 4.92 µg/m3 32.22 °C N/A 1,002.47 mbar 1.56 m/s 251.71 Deg 1.06 µg/m3
2022-06-23 10:00 3.88 µg/m3 99.65 µg/m3 8.36 µg/m3 30.9 °C N/A 1,002.62 mbar 1.55 m/s 333.14 Deg 0.67 µg/m3
2022-06-23 09:00 7.06 µg/m3 97.69 µg/m3 7.27 µg/m3 30.31 °C N/A 1,002.62 mbar 1.23 m/s 340.73 Deg 0.78 µg/m3
2022-06-23 08:00 13.95 µg/m3 86.67 µg/m3 10.71 µg/m3 29.01 °C N/A 1,002.40 mbar 1.03 m/s 325.62 Deg 1.65 µg/m3
2022-06-23 07:00 43.52 µg/m3 55.3 µg/m3 7.25 µg/m3 27.29 °C N/A 1,002.08 mbar 0.46 m/s 318.23 Deg 6.29 µg/m3
2022-06-23 06:00 29.96 µg/m3 0 µg/m3 4.62 µg/m3 24.77 °C N/A 1,001.95 mbar 0.59 m/s 247.35 Deg 2.97 µg/m3
2022-06-23 05:00 9.2 µg/m3 0 µg/m3 3.96 µg/m3 24.51 °C N/A 1,001.55 mbar 0.46 m/s 346.99 Deg 0.24 µg/m3
2022-06-23 04:00 6.17 µg/m3 0 µg/m3 3.16 µg/m3 24.97 °C N/A 1,000.99 mbar 0.88 m/s 291.22 Deg 0.04 µg/m3
2022-06-23 03:00 3.83 µg/m3 0 µg/m3 5.98 µg/m3 25.3 °C N/A 1,001.15 mbar 0.87 m/s 302.68 Deg 0.11 µg/m3
2022-06-23 02:00 2.37 µg/m3 0 µg/m3 7.83 µg/m3 25.5 °C N/A 1,001.32 mbar 0.47 m/s 307.22 Deg -0 µg/m3
2022-06-23 01:00 11.48 µg/m3 0 µg/m3 6.32 µg/m3 25.79 °C N/A 1,001.54 mbar 0.74 m/s 305.39 Deg -0.03 µg/m3
2022-06-23 00:00 6.5 µg/m3 0 µg/m3 3.62 µg/m3 25.84 °C N/A 1,001.91 mbar 0.52 m/s 298.89 Deg -0.01 µg/m3
2022-06-22 23:00 1.82 µg/m3 0 µg/m3 3.37 µg/m3 26.32 °C N/A 1,002.12 mbar 1.02 m/s 311.64 Deg 0.25 µg/m3
2022-06-22 22:00 3.83 µg/m3 0 µg/m3 3.26 µg/m3 26.24 °C N/A 1,002.18 mbar 0.84 m/s 326.6 Deg 0.26 µg/m3
2022-06-22 21:00 8.32 µg/m3 0 µg/m3 4.77 µg/m3 26.25 °C N/A 1,001.79 mbar 0.79 m/s 315.86 Deg 0.33 µg/m3
2022-06-22 20:00 3.63 µg/m3 0 µg/m3 4.09 µg/m3 26.52 °C N/A 1,001.56 mbar 1.02 m/s 326.33 Deg 0.1 µg/m3
2022-06-22 19:00 3.42 µg/m3 0 µg/m3 5.22 µg/m3 28.09 °C N/A 1,001.46 mbar 0.99 m/s 323.22 Deg 0.2 µg/m3
2022-06-22 18:00 4.55 µg/m3 0 µg/m3 5.73 µg/m3 29.57 °C N/A 1,001.33 mbar 1.51 m/s 299.59 Deg 0.38 µg/m3
2022-06-22 17:00 3.84 µg/m3 0 µg/m3 5.79 µg/m3 30.48 °C N/A 1,001.43 mbar 1.59 m/s 317.24 Deg 0.66 µg/m3
2022-06-22 16:00 2.98 µg/m3 0 µg/m3 6.19 µg/m3 30.16 °C N/A 1,002.07 mbar 1.67 m/s 326.66 Deg 0.63 µg/m3
2022-06-22 15:00 4.76 µg/m3 0 µg/m3 6.57 µg/m3 30.65 °C N/A 1,002.14 mbar 1.78 m/s 315.77 Deg 0.9 µg/m3
2022-06-22 14:00 3.74 µg/m3 0 µg/m3 6.4 µg/m3 30.25 °C N/A 1,001.94 mbar 1.87 m/s 296 Deg 0.82 µg/m3
2022-06-22 13:00 5.09 µg/m3 0 µg/m3 5.05 µg/m3 29.42 °C N/A 1,002.06 mbar 2.3 m/s 292.72 Deg 1.09 µg/m3
2022-06-22 12:00 4.52 µg/m3 0 µg/m3 6.15 µg/m3 29.25 °C N/A 1,002.37 mbar 2.34 m/s 282.55 Deg 0.94 µg/m3
2022-06-22 11:00 5.47 µg/m3 0 µg/m3 6.98 µg/m3 29.56 °C N/A 1,002.45 mbar 1.69 m/s 296.52 Deg 0.95 µg/m3
2022-06-22 10:00 8.17 µg/m3 0 µg/m3 6.26 µg/m3 29.53 °C N/A 1,002.30 mbar 2.01 m/s 298.09 Deg 1.42 µg/m3
2022-06-22 09:00 0 µg/m3 0 µg/m3 1.33 µg/m3 29.1 °C N/A 1,002.09 mbar 1.28 m/s 312.18 Deg 0 µg/m3
2022-06-22 08:00 10.84 µg/m3 82.07 µg/m3 2.58 µg/m3 27.94 °C N/A 1,001.94 mbar 1.03 m/s 327.72 Deg 1.08 µg/m3
2022-06-22 07:00 24.73 µg/m3 64.03 µg/m3 8.82 µg/m3 25.9 °C N/A 1,001.45 mbar 0.73 m/s 306.37 Deg 2.35 µg/m3
2022-06-22 06:00 19.7 µg/m3 61.23 µg/m3 6.32 µg/m3 23.61 °C N/A 1,001.28 mbar 0.44 m/s 282.5 Deg 0.76 µg/m3
2022-06-22 05:00 9.24 µg/m3 69.07 µg/m3 5.73 µg/m3 22.54 °C N/A 1,001.14 mbar 0.36 m/s 291.43 Deg 0.27 µg/m3
2022-06-22 04:00 6.55 µg/m3 53.68 µg/m3 5.47 µg/m3 22.13 °C N/A 1,001.18 mbar 0.33 m/s 253.27 Deg -0.03 µg/m3
2022-06-22 03:00 4.77 µg/m3 51.93 µg/m3 5.32 µg/m3 22.73 °C N/A 1,001.62 mbar 0.28 m/s 219.85 Deg 0.34 µg/m3
2022-06-22 02:00 0.66 µg/m3 61.69 µg/m3 4.66 µg/m3 23.33 °C N/A 1,001.88 mbar 0.53 m/s 321.67 Deg 0.24 µg/m3
2022-06-22 01:00 1.28 µg/m3 64.74 µg/m3 5.22 µg/m3 23.61 °C N/A 1,002.23 mbar 0.43 m/s 330.02 Deg -0.02 µg/m3
2022-06-22 00:00 2.3 µg/m3 65.49 µg/m3 3.82 µg/m3 23.63 °C N/A 1,002.69 mbar 0.59 m/s 305.41 Deg 0.14 µg/m3
2022-06-21 23:00 2.9 µg/m3 68.06 µg/m3 5.24 µg/m3 24.04 °C N/A 1,002.88 mbar 0.7 m/s 315.29 Deg 0.08 µg/m3
2022-06-21 22:00 3.24 µg/m3 70.61 µg/m3 5.64 µg/m3 24.31 °C N/A 1,003.07 mbar 0.82 m/s 302.28 Deg 0.05 µg/m3
2022-06-21 21:00 1.85 µg/m3 75.92 µg/m3 4.54 µg/m3 24.62 °C N/A 1,002.91 mbar 1.28 m/s 304.64 Deg 0.14 µg/m3
2022-06-21 20:00 1.97 µg/m3 79.74 µg/m3 6.17 µg/m3 25.08 °C N/A 1,002.84 mbar 1.38 m/s 289.95 Deg 0.15 µg/m3
2022-06-21 19:00 3.33 µg/m3 83.26 µg/m3 6.77 µg/m3 26.37 °C N/A 1,002.81 mbar 1.23 m/s 295.42 Deg 0.36 µg/m3
2022-06-21 18:00 3.94 µg/m3 88.25 µg/m3 7.25 µg/m3 27.8 °C N/A 1,002.58 mbar 1.45 m/s 287.9 Deg 0.67 µg/m3
2022-06-21 17:00 2.51 µg/m3 97.1 µg/m3 6.15 µg/m3 29.06 °C N/A 1,002.75 mbar 1.56 m/s 315.72 Deg 0.32 µg/m3
2022-06-21 16:00 2.7 µg/m3 100.18 µg/m3 6.68 µg/m3 29.35 °C N/A 1,003.11 mbar 1.82 m/s 347.72 Deg 0.62 µg/m3
2022-06-21 15:00 3.2 µg/m3 101.25 µg/m3 7.19 µg/m3 30.31 °C N/A 1,003.24 mbar 1.56 m/s 336.87 Deg 0.55 µg/m3
2022-06-21 14:00 4.39 µg/m3 102.29 µg/m3 8.08 µg/m3 29.73 °C N/A 1,003.58 mbar 1.56 m/s 321.07 Deg 1.64 µg/m3
2022-06-21 13:00 3.19 µg/m3 107.97 µg/m3 8.23 µg/m3 29.91 °C N/A 1,003.69 mbar 1.57 m/s 338.55 Deg 0.53 µg/m3
2022-06-21 12:00 4.29 µg/m3 109.73 µg/m3 7.3 µg/m3 29.78 °C N/A 1,003.88 mbar 1.6 m/s 301.91 Deg 1.05 µg/m3
2022-06-21 11:00 3.67 µg/m3 116 µg/m3 6.55 µg/m3 29.06 °C N/A 1,004.23 mbar 1.18 m/s 326.57 Deg 0.55 µg/m3
2022-06-21 10:00 4.53 µg/m3 113.1 µg/m3 8.19 µg/m3 28.26 °C N/A 1,004.50 mbar 1.5 m/s 328.97 Deg 0.62 µg/m3
2022-06-21 09:00 6.74 µg/m3 108.52 µg/m3 9.35 µg/m3 27.66 °C N/A 1,004.49 mbar 1.46 m/s 332.26 Deg 0.79 µg/m3
2022-06-21 08:00 10.09 µg/m3 104.86 µg/m3 12.35 µg/m3 26.77 °C N/A 1,004.14 mbar 1.3 m/s 265.31 Deg 1.08 µg/m3
2022-06-21 07:00 23.22 µg/m3 92.53 µg/m3 12.39 µg/m3 25.34 °C N/A 1,003.60 mbar 0.69 m/s 337.49 Deg 1.47 µg/m3
2022-06-21 06:00 56.44 µg/m3 38.25 µg/m3 8.91 µg/m3 22.75 °C N/A 1,003.45 mbar 0.5 m/s 286.46 Deg 5.64 µg/m3
2022-06-21 05:00 17.67 µg/m3 78.59 µg/m3 7.85 µg/m3 21.98 °C N/A 1,003.35 mbar 0.49 m/s 308.63 Deg 0.6 µg/m3
2022-06-21 04:00 13.68 µg/m3 84.42 µg/m3 6.83 µg/m3 22.34 °C N/A 1,003.28 mbar 0.44 m/s 300.69 Deg 0.14 µg/m3
2022-06-21 03:00 6.73 µg/m3 98.44 µg/m3 7.51 µg/m3 22.94 °C N/A 1,003.75 mbar 0.46 m/s 302.69 Deg 0.15 µg/m3
2022-06-21 02:00 7.24 µg/m3 92.21 µg/m3 6.64 µg/m3 23.08 °C N/A 1,003.85 mbar 0.37 m/s 302.61 Deg 0.12 µg/m3
2022-06-21 01:00 12.32 µg/m3 92.84 µg/m3 6.87 µg/m3 23.46 °C N/A 1,004.09 mbar 0.32 m/s 289.71 Deg -0.08 µg/m3
2022-06-21 00:00 11.73 µg/m3 98.64 µg/m3 7.02 µg/m3 23.74 °C N/A 1,004.42 mbar 0.32 m/s 305.36 Deg -0.05 µg/m3
2022-06-20 23:00 9.82 µg/m3 103.61 µg/m3 6.3 µg/m3 23.92 °C N/A 1,004.71 mbar 0.52 m/s 325.26 Deg 0.08 µg/m3
2022-06-20 22:00 14.06 µg/m3 87.04 µg/m3 7.66 µg/m3 24.12 °C N/A 1,004.62 mbar 0.51 m/s 292.59 Deg -0.01 µg/m3
2022-06-20 21:00 9.54 µg/m3 90.71 µg/m3 7.04 µg/m3 24.5 °C N/A 1,004.22 mbar 0.83 m/s 351.15 Deg 0.22 µg/m3
2022-06-20 20:00 6.94 µg/m3 98.67 µg/m3 6.47 µg/m3 25.51 °C N/A 1,003.74 mbar 0.93 m/s 260.95 Deg 0.35 µg/m3
2022-06-20 19:00 5.7 µg/m3 111.15 µg/m3 6.66 µg/m3 26.62 °C N/A 1,003.40 mbar 0.78 m/s 311.64 Deg 0.3 µg/m3
2022-06-20 18:00 6.93 µg/m3 103.17 µg/m3 8.02 µg/m3 27.21 °C N/A 1,003.21 mbar 1.2 m/s 227.98 Deg 0.95 µg/m3
2022-06-20 17:00 6.65 µg/m3 108.48 µg/m3 9.46 µg/m3 27.58 °C N/A 1,003.00 mbar 1.66 m/s 208.13 Deg 1.08 µg/m3
2022-06-20 16:00 5.81 µg/m3 113.42 µg/m3 9.67 µg/m3 28.16 °C N/A 1,003.11 mbar 1.82 m/s 233.5 Deg 0.84 µg/m3
2022-06-20 15:00 6.98 µg/m3 113.09 µg/m3 8.74 µg/m3 29.33 °C N/A 1,003.26 mbar 1.56 m/s 236.71 Deg 1.01 µg/m3
2022-06-20 14:00 8.49 µg/m3 107.2 µg/m3 9.14 µg/m3 28.9 °C N/A 1,003.49 mbar 1.55 m/s 211.46 Deg 2.26 µg/m3
2022-06-20 13:00 11.78 µg/m3 100.59 µg/m3 8.93 µg/m3 28.43 °C N/A 1,003.60 mbar 2.19 m/s 189.83 Deg 2.58 µg/m3
2022-06-20 12:00 10.55 µg/m3 102.42 µg/m3 10.63 µg/m3 28.02 °C N/A 1,003.82 mbar 1.98 m/s 227.29 Deg 2.17 µg/m3
2022-06-20 11:00 13.09 µg/m3 102.89 µg/m3 9.46 µg/m3 27.9 °C N/A 1,003.90 mbar 1.93 m/s 266.03 Deg 2.92 µg/m3
2022-06-20 10:00 14.35 µg/m3 98.34 µg/m3 10.84 µg/m3 27.17 °C N/A 1,003.88 mbar 1.55 m/s 233.65 Deg 2.41 µg/m3
2022-06-20 09:00 21.66 µg/m3 86.64 µg/m3 8.38 µg/m3 26.72 °C N/A 1,003.70 mbar 1.64 m/s 187.11 Deg 3.97 µg/m3
2022-06-20 08:00 21.72 µg/m3 90.41 µg/m3 14.02 µg/m3 26.48 °C N/A 1,003.51 mbar 0.85 m/s 204.36 Deg 3.09 µg/m3
2022-06-20 07:00 36.37 µg/m3 58.98 µg/m3 15.49 µg/m3 23.67 °C N/A 1,003.17 mbar 0.49 m/s 214.79 Deg 5.6 µg/m3
2022-06-20 06:00 54.44 µg/m3 12.58 µg/m3 12.43 µg/m3 22.09 °C N/A 1,002.84 mbar 0.36 m/s 270.55 Deg 21.05 µg/m3
2022-06-20 05:00 23.78 µg/m3 32.95 µg/m3 9.08 µg/m3 21.3 °C N/A 1,002.54 mbar 0.34 m/s 280.12 Deg 0.38 µg/m3
2022-06-20 04:00 9.09 µg/m3 76.62 µg/m3 7.76 µg/m3 21.97 °C N/A 1,002.38 mbar 0.36 m/s 233.26 Deg 0.06 µg/m3
2022-06-20 03:00 7.03 µg/m3 83.67 µg/m3 9.95 µg/m3 22.44 °C N/A 1,002.51 mbar 0.48 m/s 231.51 Deg 0.05 µg/m3
2022-06-20 02:00 11.74 µg/m3 74.04 µg/m3 10.99 µg/m3 22.69 °C N/A 1,002.66 mbar 0.49 m/s 254.03 Deg 0.06 µg/m3
2022-06-20 01:00 16.81 µg/m3 51.31 µg/m3 11.58 µg/m3 22.9 °C N/A 1,002.99 mbar 0.45 m/s 95.54 Deg -0.27 µg/m3
2022-06-20 00:00 16.93 µg/m3 55.17 µg/m3 12.07 µg/m3 22.9 °C N/A 1,003.17 mbar 0.28 m/s 139.65 Deg 0.11 µg/m3
2022-06-19 23:00 26.98 µg/m3 57.59 µg/m3 9.69 µg/m3 23.18 °C N/A 1,003.34 mbar 0.33 m/s 194.63 Deg 0.12 µg/m3
2022-06-19 22:00 23.03 µg/m3 71.64 µg/m3 7.78 µg/m3 23.35 °C N/A 1,003.25 mbar 0.66 m/s 169.35 Deg 0.33 µg/m3
2022-06-19 21:00 16.82 µg/m3 82.86 µg/m3 8.44 µg/m3 23.82 °C N/A 1,002.95 mbar 1.1 m/s 186.05 Deg 0.19 µg/m3
2022-06-19 20:00 12.37 µg/m3 92.96 µg/m3 8.21 µg/m3 24.31 °C N/A 1,002.47 mbar 1.7 m/s 173.98 Deg 0.24 µg/m3
2022-06-19 19:00 7.68 µg/m3 103.52 µg/m3 7.06 µg/m3 25.24 °C N/A 1,002.08 mbar 2.3 m/s 173.55 Deg 0.69 µg/m3
2022-06-19 18:00 8.66 µg/m3 106.91 µg/m3 7.51 µg/m3 26.4 °C N/A 1,001.76 mbar 2.63 m/s 164.55 Deg 1.12 µg/m3
2022-06-19 17:00 4.03 µg/m3 112.42 µg/m3 8.27 µg/m3 27.19 °C N/A 1,001.81 mbar 2.86 m/s 161.67 Deg 0.6 µg/m3
2022-06-19 16:00 5.57 µg/m3 113.34 µg/m3 8.44 µg/m3 27.17 °C N/A 1,002.07 mbar 2.87 m/s 186.38 Deg 0.84 µg/m3
2022-06-19 15:00 4.45 µg/m3 115.15 µg/m3 7.55 µg/m3 26.9 °C N/A 1,002.47 mbar 2.78 m/s 227.13 Deg 0.69 µg/m3
2022-06-19 14:00 3.49 µg/m3 115.62 µg/m3 8.21 µg/m3 27 °C N/A 1,002.88 mbar 2.29 m/s 228.25 Deg 0.41 µg/m3
2022-06-19 13:00 2.62 µg/m3 114.39 µg/m3 7.06 µg/m3 26.58 °C N/A 1,003.21 mbar 2.78 m/s 203.45 Deg 0.63 µg/m3
2022-06-19 12:00 4.25 µg/m3 116.09 µg/m3 8.55 µg/m3 26.4 °C N/A 1,003.32 mbar 2.93 m/s 218.88 Deg 0.71 µg/m3
2022-06-19 11:00 5.92 µg/m3 115.47 µg/m3 7.74 µg/m3 26.08 °C N/A 1,003.16 mbar 3.1 m/s 186.83 Deg 0.79 µg/m3
2022-06-19 10:00 5.62 µg/m3 115.19 µg/m3 5.79 µg/m3 25.64 °C N/A 1,003.22 mbar 3.16 m/s 152.33 Deg 0.96 µg/m3
2022-06-19 09:00 5.55 µg/m3 110.11 µg/m3 7.02 µg/m3 25.18 °C N/A 1,003.29 mbar 2.44 m/s 168.37 Deg 0.96 µg/m3
2022-06-19 08:00 3.99 µg/m3 115.09 µg/m3 6.57 µg/m3 24.62 °C N/A 1,003.19 mbar 2.33 m/s 170.64 Deg 0.52 µg/m3
2022-06-19 07:00 6.93 µg/m3 107.27 µg/m3 8.02 µg/m3 23.73 °C N/A 1,002.94 mbar 1.58 m/s 210.18 Deg 0.49 µg/m3
2022-06-19 06:00 8.94 µg/m3 84.29 µg/m3 7.72 µg/m3 22.57 °C N/A 1,002.73 mbar 0.88 m/s 280.47 Deg 0.32 µg/m3
2022-06-19 05:00 9.12 µg/m3 89.8 µg/m3 11.88 µg/m3 22.35 °C N/A 1,002.35 mbar 1.36 m/s 144.9 Deg 0.1 µg/m3
2022-06-19 04:00 12.59 µg/m3 75.78 µg/m3 13.62 µg/m3 22.3 °C N/A 1,002.35 mbar 0.91 m/s 147.23 Deg -0.09 µg/m3
2022-06-19 03:00 16.61 µg/m3 75.21 µg/m3 12.62 µg/m3 22.48 °C N/A 1,002.46 mbar 1.01 m/s 145.12 Deg 0.21 µg/m3
2022-06-19 02:00 12.2 µg/m3 91.8 µg/m3 10.48 µg/m3 22.72 °C N/A 1,002.62 mbar 1.36 m/s 140.53 Deg 0.19 µg/m3
2022-06-19 01:00 5.05 µg/m3 114.28 µg/m3 9.12 µg/m3 22.98 °C N/A 1,002.86 mbar 1.9 m/s 141.63 Deg 0.15 µg/m3
2022-06-19 00:00 10.04 µg/m3 99.59 µg/m3 8.61 µg/m3 23.13 °C N/A 1,002.92 mbar 1.8 m/s 145.77 Deg 0.38 µg/m3
2022-06-18 23:00 8.31 µg/m3 92.01 µg/m3 8.59 µg/m3 23.17 °C N/A 1,002.90 mbar 1.26 m/s 160.43 Deg 0.48 µg/m3
2022-06-18 22:00 10.07 µg/m3 90.71 µg/m3 7.98 µg/m3 23.4 °C N/A 1,002.87 mbar 1.72 m/s 158.38 Deg 0.06 µg/m3
2022-06-18 21:00 6.23 µg/m3 102.89 µg/m3 8.15 µg/m3 23.65 °C N/A 1,002.61 mbar 2.16 m/s 154.63 Deg 0.31 µg/m3
2022-06-18 20:00 8.04 µg/m3 100.3 µg/m3 8.65 µg/m3 23.73 °C N/A 1,001.93 mbar 3.01 m/s 140.45 Deg 0.26 µg/m3
2022-06-18 19:00 7.34 µg/m3 100.9 µg/m3 7.32 µg/m3 23.86 °C N/A 1,002.13 mbar 2.89 m/s 160.63 Deg 0.37 µg/m3
2022-06-18 18:00 5.33 µg/m3 91.66 µg/m3 6.96 µg/m3 24.45 °C N/A 1,001.92 mbar 3.15 m/s 178.08 Deg 0.6 µg/m3
2022-06-18 17:00 4.24 µg/m3 96.09 µg/m3 8.08 µg/m3 25.56 °C N/A 1,002.01 mbar 2.66 m/s 170.95 Deg 0.35 µg/m3
2022-06-18 16:00 6.47 µg/m3 106.47 µg/m3 10.03 µg/m3 27.49 °C N/A 1,001.60 mbar 2.35 m/s 212.15 Deg 0.88 µg/m3
2022-06-18 15:00 5.56 µg/m3 111.54 µg/m3 10.31 µg/m3 28.16 °C N/A 1,001.68 mbar 2.75 m/s 172.5 Deg 0.84 µg/m3
2022-06-18 14:00 6.79 µg/m3 109.02 µg/m3 8.51 µg/m3 28.26 °C N/A 1,001.58 mbar 2.48 m/s 187.63 Deg 1.01 µg/m3
2022-06-18 13:00 9.01 µg/m3 95.26 µg/m3 7.23 µg/m3 27.15 °C N/A 1,002.07 mbar 2.38 m/s 193.85 Deg 1.92 µg/m3
2022-06-18 12:00 7.02 µg/m3 97.46 µg/m3 8.34 µg/m3 26.68 °C N/A 1,002.46 mbar 2.25 m/s 244.08 Deg 1.08 µg/m3
2022-06-18 11:00 11.22 µg/m3 92.36 µg/m3 10.25 µg/m3 26.46 °C N/A 1,002.59 mbar 2.38 m/s 258.13 Deg 3.24 µg/m3
2022-06-18 10:00 10.35 µg/m3 93.3 µg/m3 8.95 µg/m3 26.75 °C N/A 1,002.62 mbar 2.4 m/s 225.58 Deg 2.18 µg/m3
2022-06-18 09:00 12.47 µg/m3 87.25 µg/m3 10.52 µg/m3 26.35 °C N/A 1,002.68 mbar 2.29 m/s 249.22 Deg 2.33 µg/m3
2022-06-18 08:00 12.78 µg/m3 80.42 µg/m3 9.46 µg/m3 25.28 °C N/A 1,002.75 mbar 1.5 m/s 168.34 Deg 2.09 µg/m3
2022-06-18 07:00 8.81 µg/m3 77.98 µg/m3 6.38 µg/m3 24.01 °C N/A 1,002.71 mbar 0.48 m/s 102.34 Deg 0.74 µg/m3
2022-06-18 06:00 7.6 µg/m3 74.2 µg/m3 5.17 µg/m3 23.28 °C N/A 1,002.40 mbar 0.35 m/s 240.9 Deg 0.25 µg/m3
2022-06-18 05:00 5.04 µg/m3 74.57 µg/m3 6 µg/m3 22.98 °C N/A 1,002.12 mbar 0.55 m/s 228.35 Deg 0.31 µg/m3
2022-06-18 04:00 4.03 µg/m3 71.36 µg/m3 6.19 µg/m3 23.18 °C N/A 1,002.12 mbar 0.73 m/s 276.76 Deg 0.02 µg/m3
2022-06-18 03:00 4.74 µg/m3 75.7 µg/m3 6.21 µg/m3 23.46 °C N/A 1,002.62 mbar 1.28 m/s 290.73 Deg 0.08 µg/m3
2022-06-18 02:00 3.99 µg/m3 82.93 µg/m3 6.04 µg/m3 23.65 °C N/A 1,003.19 mbar 0.99 m/s 297.17 Deg 0.24 µg/m3
2022-06-18 01:00 2.55 µg/m3 89.31 µg/m3 7.51 µg/m3 23.88 °C N/A 1,003.47 mbar 0.9 m/s 304.59 Deg 0.16 µg/m3
2022-06-18 00:00 3.09 µg/m3 89.44 µg/m3 6.81 µg/m3 23.93 °C N/A 1,003.72 mbar 1.43 m/s 288.58 Deg 0.23 µg/m3
2022-06-17 23:00 3.7 µg/m3 89.05 µg/m3 7.3 µg/m3 24.25 °C N/A 1,004.20 mbar 0.92 m/s 290.45 Deg 0.16 µg/m3
2022-06-17 22:00 3.99 µg/m3 88.95 µg/m3 7.08 µg/m3 24.75 °C N/A 1,004.32 mbar 1.07 m/s 292.93 Deg 0.04 µg/m3
2022-06-17 21:00 6.64 µg/m3 86.72 µg/m3 6.21 µg/m3 25 °C N/A 1,004.20 mbar 0.91 m/s 285.53 Deg -0.01 µg/m3
2022-06-17 20:00 3.29 µg/m3 87.79 µg/m3 5.6 µg/m3 25.3 °C N/A 1,003.82 mbar 1.01 m/s 290.39 Deg 0.3 µg/m3
2022-06-17 19:00 2.1 µg/m3 89 µg/m3 5.09 µg/m3 26.17 °C N/A 1,003.86 mbar 1.34 m/s 343.83 Deg 0.14 µg/m3
2022-06-17 18:00 3.52 µg/m3 90.91 µg/m3 5.85 µg/m3 27.95 °C N/A 1,003.58 mbar 1.34 m/s 328.13 Deg 0.7 µg/m3
2022-06-17 17:00 3.52 µg/m3 90.9 µg/m3 6.02 µg/m3 28.72 °C N/A 1,003.52 mbar 1.75 m/s 291.11 Deg 0.58 µg/m3
2022-06-17 16:00 3.37 µg/m3 94.71 µg/m3 4.9 µg/m3 29.36 °C N/A 1,003.89 mbar 1.61 m/s 317.87 Deg 0.5 µg/m3
2022-06-17 15:00 3.62 µg/m3 97.03 µg/m3 5.49 µg/m3 30.26 °C N/A 1,004.28 mbar 1.65 m/s 330.9 Deg 0.63 µg/m3
2022-06-17 14:00 6.08 µg/m3 92.44 µg/m3 4.66 µg/m3 30.71 °C N/A 1,004.57 mbar 1.66 m/s 332.05 Deg 2.47 µg/m3
2022-06-17 13:00 8.5 µg/m3 94.24 µg/m3 4.09 µg/m3 30.85 °C N/A 1,004.91 mbar 1.39 m/s 316.87 Deg 3.34 µg/m3
2022-06-17 12:00 9.23 µg/m3 104.04 µg/m3 3.65 µg/m3 30.02 °C N/A 1,005.28 mbar 1.67 m/s 335.45 Deg 2.79 µg/m3
2022-06-17 11:00 6.44 µg/m3 107.29 µg/m3 6.26 µg/m3 29.77 °C N/A 1,005.20 mbar 1.44 m/s 328.8 Deg 0.99 µg/m3
2022-06-17 10:00 7.91 µg/m3 100.38 µg/m3 7.42 µg/m3 29.94 °C N/A 1,004.98 mbar 1.25 m/s 341.31 Deg 1.06 µg/m3
2022-06-17 09:00 13.8 µg/m3 86.58 µg/m3 7.44 µg/m3 28.89 °C N/A 1,005.01 mbar 0.82 m/s 92.56 Deg 1.93 µg/m3
2022-06-17 08:00 18.21 µg/m3 76.98 µg/m3 8 µg/m3 26.97 °C N/A 1,005.20 mbar 0.89 m/s 93.95 Deg 2.55 µg/m3
2022-06-17 07:00 25.08 µg/m3 68.14 µg/m3 6.34 µg/m3 25.07 °C N/A 1,005.16 mbar 0.54 m/s 12.37 Deg 2.25 µg/m3
2022-06-17 06:00 24.05 µg/m3 62.75 µg/m3 6.23 µg/m3 22.73 °C N/A 1,004.97 mbar 0.61 m/s 261 Deg 1.03 µg/m3
2022-06-17 05:00 10.5 µg/m3 67.1 µg/m3 4.75 µg/m3 22.09 °C N/A 1,004.84 mbar 0.49 m/s 325.77 Deg -0 µg/m3
2022-06-17 04:00 5.86 µg/m3 77.58 µg/m3 4.45 µg/m3 22.45 °C N/A 1,004.64 mbar 0.43 m/s 246.2 Deg 0.07 µg/m3
2022-06-17 03:00 2.69 µg/m3 84.47 µg/m3 3.71 µg/m3 22.58 °C N/A 1,004.64 mbar 0.48 m/s 333.51 Deg 0.02 µg/m3
2022-06-17 02:00 4.46 µg/m3 80.01 µg/m3 5.03 µg/m3 22.76 °C N/A 1,005.05 mbar 0.78 m/s 175.98 Deg 0.06 µg/m3
2022-06-17 01:00 10.53 µg/m3 75.62 µg/m3 5.68 µg/m3 23.22 °C N/A 1,005.51 mbar 0.45 m/s 222.11 Deg -0.07 µg/m3
2022-06-17 00:00 15.61 µg/m3 60.15 µg/m3 4.83 µg/m3 23.28 °C N/A 1,005.77 mbar 0.32 m/s 220.29 Deg -0.01 µg/m3
2022-06-16 23:00 15.87 µg/m3 63.31 µg/m3 4.41 µg/m3 23.24 °C N/A 1,005.75 mbar 0.42 m/s 294.38 Deg -0.1 µg/m3
2022-06-16 22:00 8.85 µg/m3 76.66 µg/m3 2.97 µg/m3 23.69 °C N/A 1,005.92 mbar 0.65 m/s 235.31 Deg 0.07 µg/m3
2022-06-16 21:00 4.02 µg/m3 84.57 µg/m3 3.39 µg/m3 24.12 °C N/A 1,005.51 mbar 0.6 m/s 235.73 Deg 0.11 µg/m3
2022-06-16 20:00 3.46 µg/m3 90.94 µg/m3 4.52 µg/m3 24.89 °C N/A 1,005.17 mbar 0.81 m/s 335.17 Deg 0.18 µg/m3
2022-06-16 19:00 3.97 µg/m3 97.48 µg/m3 3.52 µg/m3 26.43 °C N/A 1,004.85 mbar 1.06 m/s 320.51 Deg 0.22 µg/m3
2022-06-16 18:00 2.4 µg/m3 100.38 µg/m3 2.58 µg/m3 27.35 °C N/A 1,004.49 mbar 1.23 m/s 336.11 Deg 0.36 µg/m3
2022-06-16 17:00 1.82 µg/m3 101.61 µg/m3 1.59 µg/m3 29.34 °C N/A 1,004.21 mbar 1.26 m/s 341.97 Deg 0.17 µg/m3
2022-06-16 16:00 2.53 µg/m3 102.7 µg/m3 2.97 µg/m3 30.2 °C N/A 1,004.38 mbar 1.21 m/s 341.25 Deg 0.49 µg/m3
2022-06-16 15:00 2.04 µg/m3 103.75 µg/m3 2.63 µg/m3 30.1 °C N/A 1,004.85 mbar 1.27 m/s 337.9 Deg 0.46 µg/m3
2022-06-16 14:00 2.7 µg/m3 103.6 µg/m3 5.26 µg/m3 30.28 °C N/A 1,005.09 mbar 1.56 m/s 319.33 Deg 0.51 µg/m3
2022-06-16 13:00 1.63 µg/m3 108.43 µg/m3 5.09 µg/m3 30.16 °C N/A 1,005.24 mbar 1.58 m/s 340.72 Deg 0.41 µg/m3
2022-06-16 12:00 3.81 µg/m3 107.66 µg/m3 0.44 µg/m3 29.88 °C N/A 1,005.35 mbar 1.45 m/s 169.7 Deg 0.43 µg/m3
2022-06-16 11:00 4.09 µg/m3 107.49 µg/m3 2.46 µg/m3 29.5 °C N/A 1,005.24 mbar 1.22 m/s 252.06 Deg 0.69 µg/m3
2022-06-16 10:00 5.07 µg/m3 103.76 µg/m3 3.92 µg/m3 28.13 °C N/A 1,005.16 mbar 1.12 m/s 328.29 Deg 0.98 µg/m3
2022-06-16 09:00 4.99 µg/m3 98.78 µg/m3 4.22 µg/m3 26.93 °C N/A 1,005.19 mbar 1.51 m/s 256.38 Deg 0.67 µg/m3
2022-06-16 08:00 7.77 µg/m3 98.57 µg/m3 4.35 µg/m3 25.97 °C N/A 1,005.16 mbar 1.54 m/s 344.62 Deg 0.64 µg/m3
2022-06-16 07:00 14.57 µg/m3 92.41 µg/m3 9.4 µg/m3 24.55 °C N/A 1,004.96 mbar 0.95 m/s 260.71 Deg 0.84 µg/m3
2022-06-16 06:00 31.39 µg/m3 71.23 µg/m3 7.89 µg/m3 23.06 °C N/A 1,004.89 mbar 0.59 m/s 316.65 Deg 0.44 µg/m3
2022-06-16 05:00 29.05 µg/m3 50.11 µg/m3 5.24 µg/m3 22.27 °C N/A 1,004.74 mbar 0.38 m/s 273.74 Deg 0.61 µg/m3
2022-06-16 04:00 8.29 µg/m3 83.62 µg/m3 5.73 µg/m3 22.21 °C N/A 1,004.71 mbar 0.44 m/s 309.21 Deg -0.11 µg/m3
2022-06-16 03:00 13.7 µg/m3 76.76 µg/m3 6.45 µg/m3 22.62 °C N/A 1,004.75 mbar 0.44 m/s 313.63 Deg -0.3 µg/m3
2022-06-16 02:00 13.39 µg/m3 63.36 µg/m3 6.45 µg/m3 22.69 °C N/A 1,004.88 mbar 0.27 m/s 265.91 Deg 0.07 µg/m3
2022-06-16 01:00 13.36 µg/m3 74.35 µg/m3 5.45 µg/m3 23 °C N/A 1,005.23 mbar 0.47 m/s 271.84 Deg 0.02 µg/m3
2022-06-16 00:00 13.29 µg/m3 82.11 µg/m3 7.55 µg/m3 23.57 °C N/A 1,005.87 mbar 0.38 m/s 333.31 Deg -0.26 µg/m3
2022-06-15 23:00 33 µg/m3 53.93 µg/m3 4.66 µg/m3 24.03 °C N/A 1,005.91 mbar 0.39 m/s 276.94 Deg -0.05 µg/m3
2022-06-15 22:00 10.69 µg/m3 93.51 µg/m3 3.31 µg/m3 24.54 °C N/A 1,005.99 mbar 0.55 m/s 271.29 Deg -0.03 µg/m3
2022-06-15 21:00 9.06 µg/m3 105.08 µg/m3 4.22 µg/m3 24.93 °C N/A 1,005.67 mbar 0.71 m/s 186.42 Deg -0.21 µg/m3
2022-06-15 20:00 7.24 µg/m3 114.18 µg/m3 4.35 µg/m3 25.6 °C N/A 1,005.20 mbar 1.22 m/s 103.35 Deg 0.01 µg/m3
2022-06-15 19:00 7.06 µg/m3 110.98 µg/m3 4.15 µg/m3 27.07 °C N/A 1,004.97 mbar 1.13 m/s 184.35 Deg 0.25 µg/m3
2022-06-15 18:00 3.78 µg/m3 110.27 µg/m3 5.64 µg/m3 28.48 °C N/A 1,004.89 mbar 1.02 m/s 332.38 Deg 0.29 µg/m3
2022-06-15 17:00 4.48 µg/m3 116.34 µg/m3 6.53 µg/m3 29.34 °C N/A 1,004.81 mbar 1.44 m/s 270.38 Deg 0.37 µg/m3
2022-06-15 16:00 9.1 µg/m3 112.88 µg/m3 6.98 µg/m3 29.58 °C N/A 1,004.92 mbar 2 m/s 102.52 Deg 1.04 µg/m3
2022-06-15 15:00 7.91 µg/m3 118.33 µg/m3 5.87 µg/m3 30.5 °C N/A 1,005.16 mbar 1.37 m/s 97.79 Deg 0.74 µg/m3
2022-06-15 14:00 7.14 µg/m3 115.46 µg/m3 6.36 µg/m3 29.62 °C N/A 1,005.58 mbar 1.48 m/s 8.71 Deg 1 µg/m3
2022-06-15 13:00 8.79 µg/m3 108.05 µg/m3 6.09 µg/m3 29.38 °C N/A 1,005.78 mbar 1.95 m/s 34.95 Deg 1.19 µg/m3
2022-06-15 12:00 11.32 µg/m3 103.97 µg/m3 6.53 µg/m3 29.69 °C N/A 1,005.80 mbar 1.84 m/s 16.03 Deg 1.48 µg/m3
2022-06-15 11:00 7.99 µg/m3 107.96 µg/m3 6.43 µg/m3 29.52 °C N/A 1,005.92 mbar 1.28 m/s 13.94 Deg 0.82 µg/m3
2022-06-15 10:00 10.8 µg/m3 103.31 µg/m3 6.83 µg/m3 28.53 °C N/A 1,005.63 mbar 1.56 m/s 23.95 Deg 1.15 µg/m3
2022-06-15 09:00 10.47 µg/m3 102.46 µg/m3 8.59 µg/m3 27.75 °C N/A 1,005.27 mbar 1.17 m/s 15.23 Deg 0.52 µg/m3
2022-06-15 08:00 18.64 µg/m3 87.9 µg/m3 9.89 µg/m3 26.26 °C N/A 1,005.15 mbar 1.2 m/s 98.15 Deg 1.64 µg/m3
2022-06-15 07:00 34.39 µg/m3 78.58 µg/m3 11.99 µg/m3 24.91 °C N/A 1,005.01 mbar 0.84 m/s 260.95 Deg 2.82 µg/m3
2022-06-15 06:00 40.07 µg/m3 65.2 µg/m3 6.62 µg/m3 23.51 °C N/A 1,004.74 mbar 0.41 m/s 172.31 Deg 2.85 µg/m3
2022-06-15 05:00 6.14 µg/m3 103.32 µg/m3 4.56 µg/m3 22.66 °C N/A 1,004.49 mbar 0.35 m/s 295.44 Deg -0.57 µg/m3
2022-06-15 04:00 8.32 µg/m3 85.14 µg/m3 4.35 µg/m3 22.35 °C N/A 1,004.23 mbar 0.35 m/s 295.12 Deg -0.59 µg/m3
2022-06-15 03:00 8.86 µg/m3 80.55 µg/m3 5.49 µg/m3 22.47 °C N/A 1,004.20 mbar 0.27 m/s 313.95 Deg -0.35 µg/m3
2022-06-15 02:00 10.11 µg/m3 75.32 µg/m3 6.91 µg/m3 22.16 °C N/A 1,004.33 mbar 0.27 m/s 297.44 Deg -0.29 µg/m3
2022-06-15 01:00 8.16 µg/m3 82.79 µg/m3 7.32 µg/m3 22.31 °C N/A 1,004.51 mbar 0.25 m/s 288.85 Deg -0.41 µg/m3
2022-06-15 00:00 5.79 µg/m3 102.93 µg/m3 8.04 µg/m3 23.13 °C N/A 1,004.68 mbar 0.4 m/s 289.99 Deg -0.64 µg/m3
2022-06-14 23:00 11 µg/m3 98.04 µg/m3 7.95 µg/m3 23.52 °C N/A 1,004.78 mbar 0.55 m/s 245.3 Deg -0.27 µg/m3
2022-06-14 22:00 12.74 µg/m3 98.99 µg/m3 6.38 µg/m3 23.78 °C N/A 1,004.51 mbar 0.59 m/s 351.64 Deg -0.47 µg/m3
2022-06-14 21:00 8.83 µg/m3 109.69 µg/m3 5.9 µg/m3 24.08 °C N/A 1,003.78 mbar 0.82 m/s 181.6 Deg -0.72 µg/m3
2022-06-14 20:00 6.19 µg/m3 112.47 µg/m3 9.21 µg/m3 25.02 °C N/A 1,003.25 mbar 0.96 m/s 240.62 Deg -0.75 µg/m3
2022-06-14 19:00 7.02 µg/m3 106.69 µg/m3 9.42 µg/m3 26.1 °C N/A 1,002.76 mbar 1.33 m/s 220.48 Deg 0 µg/m3
2022-06-14 18:00 9.09 µg/m3 101.11 µg/m3 7.27 µg/m3 27.54 °C N/A 1,002.35 mbar 1.65 m/s 219.52 Deg 1 µg/m3
2022-06-14 17:00 10.37 µg/m3 105.6 µg/m3 7.42 µg/m3 28.74 °C N/A 1,002.15 mbar 2.06 m/s 208.67 Deg 1.29 µg/m3
2022-06-14 16:00 13.35 µg/m3 108.48 µg/m3 8.31 µg/m3 28.99 °C N/A 1,002.22 mbar 2.25 m/s 167.7 Deg 1.88 µg/m3
2022-06-14 15:00 12.35 µg/m3 108.99 µg/m3 7 µg/m3 29.21 °C N/A 1,002.49 mbar 1.97 m/s 208.48 Deg 1.16 µg/m3
2022-06-14 14:00 8.11 µg/m3 111.71 µg/m3 8.46 µg/m3 29.14 °C N/A 1,002.74 mbar 2.09 m/s 207.17 Deg -0.9 µg/m3
2022-06-14 13:00 -0.92 µg/m3 20.57 µg/m3 7.98 µg/m3 28.88 °C N/A 1,002.88 mbar 2.22 m/s 197.8 Deg 83.65 µg/m3
2022-06-14 12:00 0 µg/m3 4.71 µg/m3 7.4 µg/m3 28.58 °C N/A 1,002.94 mbar 1.87 m/s 202.5 Deg 0 µg/m3
2022-06-14 11:00 0 µg/m3 4.38 µg/m3 8.23 µg/m3 28.13 °C N/A 1,003.01 mbar 1.98 m/s 203.75 Deg 0 µg/m3
2022-06-14 10:00 0 µg/m3 4.06 µg/m3 8.85 µg/m3 27.27 °C N/A 1,002.97 mbar 1.58 m/s 212.35 Deg 0 µg/m3
2022-06-14 09:00 0 µg/m3 3.29 µg/m3 8.31 µg/m3 25.59 °C N/A 1,002.82 mbar 1.21 m/s 171.21 Deg 0 µg/m3
2022-06-14 08:00 0 µg/m3 2.7 µg/m3 8.93 µg/m3 24.1 °C N/A 1,002.68 mbar 1.03 m/s 247.2 Deg 0 µg/m3
2022-06-14 07:00 0 µg/m3 2.32 µg/m3 9.4 µg/m3 22.85 °C N/A 1,002.53 mbar 1.07 m/s 111.38 Deg 0 µg/m3
2022-06-14 06:00 0 µg/m3 2.21 µg/m3 5.07 µg/m3 21.37 °C N/A 1,002.02 mbar 0.63 m/s 312.89 Deg 0 µg/m3
2022-06-14 05:00 0 µg/m3 2.37 µg/m3 4.05 µg/m3 20.98 °C N/A 1,001.82 mbar 0.47 m/s 304.74 Deg 0 µg/m3
2022-06-14 04:00 0 µg/m3 2.34 µg/m3 3.82 µg/m3 20.81 °C N/A 1,001.68 mbar 0.44 m/s 213.13 Deg 0 µg/m3
2022-06-14 03:00 0 µg/m3 2.35 µg/m3 2.03 µg/m3 20.75 °C N/A 1,001.65 mbar 0.52 m/s 263.97 Deg 0 µg/m3
2022-06-14 02:00 0 µg/m3 2.81 µg/m3 3.71 µg/m3 21.46 °C N/A 1,001.74 mbar 0.48 m/s 205.31 Deg 0 µg/m3
2022-06-14 01:00 0 µg/m3 3.2 µg/m3 2.99 µg/m3 21.92 °C N/A 1,001.91 mbar 1.02 m/s 189.71 Deg 0 µg/m3
2022-06-14 00:00 0 µg/m3 3.25 µg/m3 1.93 µg/m3 22.38 °C N/A 1,002.04 mbar 1.15 m/s 289.78 Deg 0 µg/m3
2022-06-13 23:00 0 µg/m3 3.36 µg/m3 4.47 µg/m3 22.89 °C N/A 1,002.06 mbar 1.07 m/s 261.89 Deg 0 µg/m3
2022-06-13 22:00 0 µg/m3 3.61 µg/m3 9.52 µg/m3 23.46 °C N/A 1,002.37 mbar 0.75 m/s 268.67 Deg 0 µg/m3
2022-06-13 21:00 0 µg/m3 3.85 µg/m3 6.13 µg/m3 24.3 °C N/A 1,002.18 mbar 0.64 m/s 284.95 Deg 0 µg/m3
2022-06-13 20:00 0 µg/m3 4.62 µg/m3 4.47 µg/m3 25.13 °C N/A 1,001.97 mbar 0.63 m/s 325.96 Deg 0 µg/m3
2022-06-13 19:00 0 µg/m3 5.06 µg/m3 4.83 µg/m3 26.19 °C N/A 1,001.78 mbar 1.13 m/s 339.23 Deg 0 µg/m3
2022-06-13 18:00 0 µg/m3 5.89 µg/m3 4.2 µg/m3 26.94 °C N/A 1,001.68 mbar 1.32 m/s 345.32 Deg 0 µg/m3
2022-06-13 17:00 0 µg/m3 6.09 µg/m3 5.73 µg/m3 27.62 °C N/A 1,001.61 mbar 1.81 m/s 337 Deg 0 µg/m3
2022-06-13 16:00 0 µg/m3 5.24 µg/m3 4.86 µg/m3 28.79 °C N/A 1,001.66 mbar 1.67 m/s 325.82 Deg 0 µg/m3
2022-06-13 15:00 0 µg/m3 5.66 µg/m3 4.88 µg/m3 29.41 °C N/A 1,001.83 mbar 1.52 m/s 326.77 Deg 0 µg/m3
2022-06-13 14:00 0 µg/m3 6.02 µg/m3 6.7 µg/m3 28.69 °C N/A 1,002.21 mbar 2.13 m/s 18.31 Deg 0 µg/m3
2022-06-13 13:00 0 µg/m3 5.77 µg/m3 7 µg/m3 28.24 °C N/A 1,002.66 mbar 2.21 m/s 25.34 Deg 0 µg/m3
2022-06-13 12:00 0 µg/m3 5.29 µg/m3 7.17 µg/m3 27.85 °C N/A 1,002.98 mbar 1.96 m/s 104.38 Deg 0 µg/m3
2022-06-13 11:00 0 µg/m3 4.98 µg/m3 7.89 µg/m3 26.95 °C N/A 1,003.16 mbar 1.81 m/s 23.27 Deg 0 µg/m3
2022-06-13 10:00 0 µg/m3 4.46 µg/m3 27.21 µg/m3 26.44 °C N/A 1,003.03 mbar 1.8 m/s 102.47 Deg 0 µg/m3
2022-06-13 09:00 0 µg/m3 3.96 µg/m3 13.83 µg/m3 25.41 °C N/A 1,003.01 mbar 1.53 m/s 22.57 Deg 0 µg/m3
2022-06-13 08:00 0 µg/m3 5 µg/m3 8.46 µg/m3 24.48 °C N/A 1,002.83 mbar 1.58 m/s 23.25 Deg 0 µg/m3
2022-06-13 07:00 30.06 µg/m3 73.6 µg/m3 7.02 µg/m3 23.82 °C N/A 1,002.49 mbar 1.18 m/s 23.07 Deg 2.98 µg/m3
2022-06-13 06:00 31.82 µg/m3 72.3 µg/m3 6.09 µg/m3 22.98 °C N/A 1,002.06 mbar 0.65 m/s 205.07 Deg 1.44 µg/m3
2022-06-13 05:00 24.72 µg/m3 67.27 µg/m3 4.07 µg/m3 22.08 °C N/A 1,001.74 mbar 0.41 m/s 218.86 Deg 0.33 µg/m3
2022-06-13 04:00 6.78 µg/m3 96.99 µg/m3 3.31 µg/m3 22.45 °C N/A 1,001.46 mbar 1.12 m/s 173.02 Deg 0.07 µg/m3
2022-06-13 03:00 6.19 µg/m3 97.38 µg/m3 3.01 µg/m3 22.29 °C N/A 1,001.57 mbar 1.16 m/s 185.16 Deg 0.12 µg/m3
2022-06-13 02:00 5.07 µg/m3 89.32 µg/m3 4.32 µg/m3 21.45 °C N/A 1,001.97 mbar 0.68 m/s 171.75 Deg 0.11 µg/m3
2022-06-13 01:00 2.71 µg/m3 96.94 µg/m3 4.6 µg/m3 21.65 °C N/A 1,002.41 mbar 1.27 m/s 255.72 Deg 0.15 µg/m3
2022-06-13 00:00 3.33 µg/m3 97.41 µg/m3 5.36 µg/m3 22.28 °C N/A 1,002.71 mbar 1.17 m/s 336.42 Deg 0.19 µg/m3
2022-06-12 23:00 5.98 µg/m3 95.97 µg/m3 3.99 µg/m3 22.69 °C N/A 1,002.94 mbar 1.21 m/s 260.62 Deg 0.18 µg/m3
2022-06-12 22:00 5.04 µg/m3 102.26 µg/m3 3.94 µg/m3 23.74 °C N/A 1,002.98 mbar 1.38 m/s 175.73 Deg 0.13 µg/m3
2022-06-12 21:00 3.91 µg/m3 107.98 µg/m3 4.24 µg/m3 23.93 °C N/A 1,002.75 mbar 0.99 m/s 331.72 Deg 0.16 µg/m3
2022-06-12 20:00 3.73 µg/m3 109.46 µg/m3 4.66 µg/m3 24.13 °C N/A 1,002.46 mbar 1.04 m/s 340.43 Deg 0.21 µg/m3
2022-06-12 19:00 7.37 µg/m3 106.04 µg/m3 3.9 µg/m3 24.89 °C N/A 1,002.36 mbar 0.95 m/s 320.86 Deg 0.34 µg/m3
2022-06-12 18:00 1.69 µg/m3 107.1 µg/m3 3.99 µg/m3 26.18 °C N/A 1,002.32 mbar 1.33 m/s 305.62 Deg 0.29 µg/m3
2022-06-12 17:00 1.46 µg/m3 110.82 µg/m3 5.13 µg/m3 27.35 °C N/A 1,002.36 mbar 1.5 m/s 259.12 Deg 0.31 µg/m3
2022-06-12 16:00 2.04 µg/m3 111.55 µg/m3 5.09 µg/m3 27.6 °C N/A 1,002.62 mbar 1.93 m/s 345.93 Deg 0.37 µg/m3
2022-06-12 15:00 1.36 µg/m3 105.38 µg/m3 4.96 µg/m3 28.04 °C N/A 1,002.81 mbar 2 m/s 174.18 Deg 0.27 µg/m3
2022-06-12 14:00 1.66 µg/m3 108.35 µg/m3 4.26 µg/m3 28.49 °C N/A 1,003.02 mbar 1.33 m/s 329.7 Deg 0.18 µg/m3
2022-06-12 13:00 1.78 µg/m3 107.95 µg/m3 3.9 µg/m3 28.31 °C N/A 1,003.42 mbar 1.96 m/s 251.63 Deg 0.33 µg/m3
2022-06-12 12:00 2.92 µg/m3 108.08 µg/m3 3.54 µg/m3 27.15 °C N/A 1,003.90 mbar 2.66 m/s 11.67 Deg 0.58 µg/m3
2022-06-12 11:00 4.35 µg/m3 106.61 µg/m3 4.13 µg/m3 26.65 °C N/A 1,004.04 mbar 2.62 m/s 16.37 Deg 1.04 µg/m3
2022-06-12 10:00 4.89 µg/m3 102.61 µg/m3 4.18 µg/m3 25.92 °C N/A 1,004.09 mbar 2.69 m/s 23.4 Deg 0.8 µg/m3
2022-06-12 09:00 4.73 µg/m3 98.42 µg/m3 5.45 µg/m3 25.78 °C N/A 1,003.94 mbar 1.71 m/s 171.52 Deg 0.66 µg/m3
2022-06-12 08:00 6.16 µg/m3 90.4 µg/m3 6.72 µg/m3 24.43 °C N/A 1,003.91 mbar 1.06 m/s 341.19 Deg 0.69 µg/m3
2022-06-12 07:00 10.13 µg/m3 72.36 µg/m3 6.17 µg/m3 22.45 °C N/A 1,003.66 mbar 0.9 m/s 179.84 Deg 0.92 µg/m3
2022-06-12 06:00 10.14 µg/m3 62.95 µg/m3 5.45 µg/m3 21.08 °C N/A 1,003.52 mbar 0.89 m/s 266.2 Deg 0.31 µg/m3
2022-06-12 05:00 10.14 µg/m3 63.04 µg/m3 4.92 µg/m3 21.31 °C N/A 1,003.10 mbar 0.78 m/s 94.39 Deg 0.15 µg/m3
2022-06-12 04:00 7.3 µg/m3 81.46 µg/m3 4.35 µg/m3 21.7 °C N/A 1,002.91 mbar 0.48 m/s 109.43 Deg 0.15 µg/m3
2022-06-12 03:00 9.44 µg/m3 80.11 µg/m3 4.45 µg/m3 21.85 °C N/A 1,003.07 mbar 0.54 m/s 180.71 Deg 0.27 µg/m3
2022-06-12 02:00 6.07 µg/m3 85.97 µg/m3 4.92 µg/m3 21.91 °C N/A 1,003.12 mbar 0.77 m/s 160.48 Deg 0.27 µg/m3
2022-06-12 01:00 9.17 µg/m3 88.41 µg/m3 4.09 µg/m3 21.89 °C N/A 1,003.31 mbar 1.17 m/s 152.3 Deg 0.12 µg/m3
2022-06-12 00:00 10.2 µg/m3 85.1 µg/m3 3.71 µg/m3 21.86 °C N/A 1,003.25 mbar 1.24 m/s 85.03 Deg 0.19 µg/m3
2022-06-11 23:00 5.98 µg/m3 86.33 µg/m3 4.07 µg/m3 21.64 °C N/A 1,003.01 mbar 1.62 m/s 338.93 Deg 0.16 µg/m3
2022-06-11 22:00 3.19 µg/m3 94.34 µg/m3 3.31 µg/m3 21.8 °C N/A 1,003.02 mbar 1.48 m/s 339.7 Deg 0.15 µg/m3
2022-06-11 21:00 3.02 µg/m3 98.92 µg/m3 3.33 µg/m3 21.97 °C N/A 1,002.86 mbar 1.64 m/s 342.08 Deg 0.12 µg/m3
2022-06-11 20:00 3.64 µg/m3 101.45 µg/m3 3.18 µg/m3 22.59 °C N/A 1,002.36 mbar 1.44 m/s 329.73 Deg 0.12 µg/m3
2022-06-11 19:00 2.72 µg/m3 103.7 µg/m3 3.92 µg/m3 23.38 °C N/A 1,002.13 mbar 1.55 m/s 326.9 Deg 0.28 µg/m3
2022-06-11 18:00 1.8 µg/m3 103.87 µg/m3 5.09 µg/m3 24.54 °C N/A 1,001.81 mbar 1.85 m/s 328.97 Deg 0.25 µg/m3
2022-06-11 17:00 1.61 µg/m3 100.84 µg/m3 5.45 µg/m3 25.9 °C N/A 1,001.57 mbar 1.67 m/s 316.13 Deg 0.43 µg/m3
2022-06-11 16:00 1.68 µg/m3 98.47 µg/m3 5.79 µg/m3 26.2 °C N/A 1,001.62 mbar 2.05 m/s 335.03 Deg 0.29 µg/m3
2022-06-11 15:00 2.24 µg/m3 98.66 µg/m3 5 µg/m3 26.73 °C N/A 1,001.57 mbar 2.53 m/s 342.68 Deg 0.48 µg/m3
2022-06-11 14:00 2.47 µg/m3 97.88 µg/m3 4.96 µg/m3 26.2 °C N/A 1,001.75 mbar 2.33 m/s 331.67 Deg 0.54 µg/m3
2022-06-11 13:00 2.55 µg/m3 98.23 µg/m3 4.35 µg/m3 26.29 °C N/A 1,001.81 mbar 1.78 m/s 317.73 Deg 0.46 µg/m3
2022-06-11 12:00 3.7 µg/m3 99 µg/m3 3.99 µg/m3 26.67 °C N/A 1,001.83 mbar 2.01 m/s 245.87 Deg 0.57 µg/m3
2022-06-11 11:00 4.25 µg/m3 96.28 µg/m3 5.03 µg/m3 26.55 °C N/A 1,001.92 mbar 2.64 m/s 90.95 Deg 0.71 µg/m3
2022-06-11 10:00 5.42 µg/m3 94.81 µg/m3 5.58 µg/m3 25.52 °C N/A 1,001.80 mbar 2.57 m/s 271.42 Deg 0.93 µg/m3
2022-06-11 09:00 7.74 µg/m3 90.22 µg/m3 5.45 µg/m3 25.05 °C N/A 1,001.47 mbar 2.25 m/s 350.93 Deg 1.3 µg/m3
2022-06-11 08:00 7.76 µg/m3 87.28 µg/m3 4.11 µg/m3 24.23 °C N/A 1,001.24 mbar 1.99 m/s 92.67 Deg 1.3 µg/m3
2022-06-11 07:00 9.67 µg/m3 82.57 µg/m3 1.97 µg/m3 22.61 °C N/A 1,000.90 mbar 1.57 m/s 337.14 Deg 1 µg/m3
2022-06-11 06:00 6.47 µg/m3 83.44 µg/m3 0.38 µg/m3 21.18 °C N/A 1,000.52 mbar 1.19 m/s 334.05 Deg 0.44 µg/m3
2022-06-11 05:00 5.22 µg/m3 84.84 µg/m3 1.76 µg/m3 20.69 °C N/A 1,000.09 mbar 1.01 m/s 322.21 Deg 0.21 µg/m3
2022-06-11 04:00 3.83 µg/m3 88.62 µg/m3 2.97 µg/m3 20.53 °C N/A 999.63 mbar 1.23 m/s 345.2 Deg 0.19 µg/m3
2022-06-11 03:00 4.93 µg/m3 91.54 µg/m3 2.35 µg/m3 20.71 °C N/A 999.31 mbar 1.44 m/s 339.28 Deg 0.25 µg/m3
2022-06-11 02:00 3.68 µg/m3 93.69 µg/m3 1.12 µg/m3 20.9 °C N/A 999.39 mbar 1.71 m/s 351.34 Deg 0.31 µg/m3
2022-06-11 01:00 4.53 µg/m3 92.32 µg/m3 1.37 µg/m3 21.03 °C N/A 999.68 mbar 1.95 m/s 169.03 Deg 0.18 µg/m3
2022-06-11 00:00 4.84 µg/m3 89.39 µg/m3 2.33 µg/m3 21.43 °C N/A 999.72 mbar 1.83 m/s 265.97 Deg 0.23 µg/m3
2022-06-10 23:00 4.35 µg/m3 88.96 µg/m3 3.16 µg/m3 21.36 °C N/A 999.62 mbar 1.73 m/s 251.02 Deg 0.16 µg/m3
2022-06-10 22:00 3.4 µg/m3 89.98 µg/m3 2.71 µg/m3 21.11 °C N/A 999.44 mbar 1.69 m/s 330.45 Deg 0.3 µg/m3
2022-06-10 21:00 2.48 µg/m3 91.79 µg/m3 3.14 µg/m3 21.57 °C N/A 998.64 mbar 2.38 m/s 323.67 Deg 0.32 µg/m3
2022-06-10 20:00 3.11 µg/m3 93.17 µg/m3 2.71 µg/m3 22.15 °C N/A 997.69 mbar 2.66 m/s 341.02 Deg 0.24 µg/m3
2022-06-10 19:00 2.6 µg/m3 91.92 µg/m3 4.73 µg/m3 22.62 °C N/A 997.16 mbar 2.26 m/s 323.12 Deg 0.3 µg/m3
2022-06-10 18:00 2.42 µg/m3 90.45 µg/m3 6.49 µg/m3 23.04 °C N/A 996.42 mbar 2.47 m/s 335.55 Deg 0.36 µg/m3
2022-06-10 17:00 2.44 µg/m3 93.4 µg/m3 9.25 µg/m3 23.41 °C N/A 996.50 mbar 2.68 m/s 327.43 Deg 0.38 µg/m3
2022-06-10 16:00 3.25 µg/m3 92.57 µg/m3 11.14 µg/m3 23.77 °C N/A 996.59 mbar 3.02 m/s 319.83 Deg 0.67 µg/m3
2022-06-10 15:00 4.06 µg/m3 88.76 µg/m3 12.71 µg/m3 23.75 °C N/A 996.54 mbar 2.98 m/s 308.68 Deg 0.9 µg/m3
2022-06-10 14:00 4.22 µg/m3 88.37 µg/m3 15.72 µg/m3 23.67 °C N/A 996.91 mbar 2.76 m/s 313.82 Deg 0.97 µg/m3
2022-06-10 13:00 4.93 µg/m3 89.75 µg/m3 15.96 µg/m3 23.85 °C N/A 997.12 mbar 3.37 m/s 328.37 Deg 1.18 µg/m3
2022-06-10 12:00 3.64 µg/m3 86.01 µg/m3 14.09 µg/m3 23.92 °C N/A 997.20 mbar 2.97 m/s 333.93 Deg 0.79 µg/m3
2022-06-10 11:00 5.08 µg/m3 83.12 µg/m3 10.54 µg/m3 23.54 °C N/A 997.13 mbar 2.39 m/s 332.42 Deg 1.16 µg/m3
2022-06-10 10:00 4.41 µg/m3 80.2 µg/m3 10.95 µg/m3 22.82 °C N/A 996.94 mbar 2.36 m/s 329.1 Deg 1.16 µg/m3
2022-06-10 09:00 5 µg/m3 76.14 µg/m3 8.87 µg/m3 22.74 °C N/A 996.61 mbar 2.45 m/s 338.07 Deg 1.19 µg/m3
2022-06-10 08:00 7.13 µg/m3 72.77 µg/m3 6.62 µg/m3 22.04 °C N/A 996.57 mbar 2.44 m/s 344.3 Deg 1.66 µg/m3
2022-06-10 07:00 7.25 µg/m3 69.93 µg/m3 6.21 µg/m3 21.32 °C N/A 996.60 mbar 1.85 m/s 318.45 Deg 1.07 µg/m3
2022-06-10 06:00 3.61 µg/m3 73.14 µg/m3 6.55 µg/m3 20.47 °C N/A 996.45 mbar 1.79 m/s 323.63 Deg 0.42 µg/m3
2022-06-10 05:00 2.92 µg/m3 72.82 µg/m3 5.39 µg/m3 20.2 °C N/A 996.26 mbar 1.93 m/s 326.98 Deg 0.27 µg/m3
2022-06-10 04:00 2.63 µg/m3 72.25 µg/m3 4.32 µg/m3 20.3 °C N/A 996.19 mbar 2.39 m/s 339.68 Deg 0.11 µg/m3
2022-06-10 03:00 3.3 µg/m3 74.08 µg/m3 3.67 µg/m3 20.46 °C N/A 996.43 mbar 1.63 m/s 323.76 Deg 0.22 µg/m3
2022-06-10 02:00 2.25 µg/m3 73.77 µg/m3 3.84 µg/m3 20.73 °C N/A 996.72 mbar 1.97 m/s 327.93 Deg 0.25 µg/m3
2022-06-10 01:00 1.43 µg/m3 76.51 µg/m3 5.09 µg/m3 20.85 °C N/A 996.86 mbar 1.81 m/s 316.34 Deg 0.25 µg/m3
2022-06-10 00:00 1.34 µg/m3 80.05 µg/m3 3.24 µg/m3 21.02 °C N/A 997.10 mbar 1.78 m/s 316.07 Deg 0.22 µg/m3
2022-06-09 23:00 3.63 µg/m3 78.92 µg/m3 2.56 µg/m3 21.32 °C N/A 997.44 mbar 1.71 m/s 324.14 Deg 0.22 µg/m3
2022-06-09 22:00 2.67 µg/m3 79.37 µg/m3 2.39 µg/m3 21.62 °C N/A 997.60 mbar 1.85 m/s 338.23 Deg 0.21 µg/m3
2022-06-09 21:00 6.45 µg/m3 83.55 µg/m3 4.05 µg/m3 21.89 °C N/A 997.43 mbar 1.53 m/s 318.77 Deg 0.3 µg/m3
2022-06-09 20:00 4.83 µg/m3 87.33 µg/m3 4.3 µg/m3 22.18 °C N/A 997.02 mbar 1.38 m/s 323.67 Deg 0.27 µg/m3
2022-06-09 19:00 2.01 µg/m3 84.48 µg/m3 5.85 µg/m3 22.92 °C N/A 996.81 mbar 1.75 m/s 327.87 Deg 0.3 µg/m3
2022-06-09 18:00 1.56 µg/m3 82.49 µg/m3 6.28 µg/m3 23.73 °C N/A 996.66 mbar 2.26 m/s 329.1 Deg 0.27 µg/m3
2022-06-09 17:00 1.57 µg/m3 80.68 µg/m3 8.72 µg/m3 24.24 °C N/A 996.65 mbar 2.35 m/s 328.45 Deg 0.44 µg/m3
2022-06-09 16:00 2.63 µg/m3 83.31 µg/m3 8.21 µg/m3 24.88 °C N/A 996.86 mbar 1.86 m/s 324.45 Deg 0.47 µg/m3
2022-06-09 15:00 3.05 µg/m3 82.9 µg/m3 11.46 µg/m3 24.9 °C N/A 997.20 mbar 2.2 m/s 326.63 Deg 0.69 µg/m3
2022-06-09 14:00 6.5 µg/m3 81.02 µg/m3 13.58 µg/m3 25.36 °C N/A 997.63 mbar 2.45 m/s 333.07 Deg 1.45 µg/m3
2022-06-09 13:00 6.9 µg/m3 81.6 µg/m3 10.18 µg/m3 26.46 °C N/A 997.47 mbar 2.46 m/s 327.9 Deg 1.6 µg/m3
2022-06-09 12:00 6.53 µg/m3 80.98 µg/m3 11.94 µg/m3 27.05 °C N/A 997.68 mbar 2.18 m/s 323.35 Deg 1.42 µg/m3
2022-06-09 11:00 6.41 µg/m3 81.76 µg/m3 10.01 µg/m3 26.7 °C N/A 998.15 mbar 2.06 m/s 319.72 Deg 1.42 µg/m3
2022-06-09 10:00 6.73 µg/m3 78.21 µg/m3 8.27 µg/m3 26.32 °C N/A 998.29 mbar 1.63 m/s 329.7 Deg 1.37 µg/m3
2022-06-09 09:00 7.87 µg/m3 80.7 µg/m3 5.73 µg/m3 27.19 °C N/A 997.99 mbar 1.67 m/s 335.28 Deg 1.38 µg/m3
2022-06-09 08:00 13.62 µg/m3 68.68 µg/m3 5.47 µg/m3 26.2 °C N/A 997.62 mbar 1.05 m/s 329.2 Deg 2.59 µg/m3
2022-06-09 07:00 17.07 µg/m3 60.33 µg/m3 3.28 µg/m3 24.19 °C N/A 997.73 mbar 0.8 m/s 337.8 Deg 2.07 µg/m3
2022-06-09 06:00 14.54 µg/m3 65.55 µg/m3 2.05 µg/m3 22.8 °C N/A 997.66 mbar 0.82 m/s 329.62 Deg 0.59 µg/m3
2022-06-09 05:00 8.26 µg/m3 71.42 µg/m3 1.97 µg/m3 22.37 °C N/A 997.49 mbar 0.61 m/s 323.1 Deg 0.22 µg/m3
2022-06-09 04:00 7.82 µg/m3 74.24 µg/m3 2.63 µg/m3 22.48 °C N/A 997.60 mbar 1.11 m/s 317.77 Deg 0.19 µg/m3
2022-06-09 03:00 4.22 µg/m3 82.99 µg/m3 2.97 µg/m3 22.53 °C N/A 997.66 mbar 1.65 m/s 313.43 Deg 0.23 µg/m3
2022-06-09 02:00 3.64 µg/m3 81.86 µg/m3 2.88 µg/m3 22.66 °C N/A 997.89 mbar 1.32 m/s 307.33 Deg 0.22 µg/m3
2022-06-09 01:00 2.72 µg/m3 84.88 µg/m3 3.03 µg/m3 22.61 °C N/A 998.31 mbar 0.97 m/s 317.6 Deg -0.01 µg/m3
2022-06-09 00:00 3.94 µg/m3 87.5 µg/m3 3.48 µg/m3 22.9 °C N/A 998.74 mbar 1.16 m/s 341.24 Deg 0.16 µg/m3
2022-06-08 23:00 1.8 µg/m3 92.37 µg/m3 2.65 µg/m3 23.47 °C N/A 999.01 mbar 1.12 m/s 329.27 Deg 0.22 µg/m3
2022-06-08 22:00 1.68 µg/m3 91.76 µg/m3 3.16 µg/m3 24.21 °C N/A 999.21 mbar 1.57 m/s 306.87 Deg 0.24 µg/m3
2022-06-08 21:00 1.76 µg/m3 88.98 µg/m3 4.32 µg/m3 24.06 °C N/A 998.93 mbar 2.19 m/s 314.5 Deg 0.18 µg/m3
2022-06-08 20:00 2.33 µg/m3 89.93 µg/m3 4.11 µg/m3 24.88 °C N/A 998.52 mbar 2.16 m/s 306.58 Deg 0.1 µg/m3
2022-06-08 19:00 3.15 µg/m3 92.9 µg/m3 4.71 µg/m3 25.41 °C N/A 998.43 mbar 2.12 m/s 314.45 Deg 0.34 µg/m3
2022-06-08 18:00 3.83 µg/m3 86.14 µg/m3 7.06 µg/m3 27.26 °C N/A 998.23 mbar 1.48 m/s 321.89 Deg 0.44 µg/m3
2022-06-08 17:00 4.24 µg/m3 88.97 µg/m3 8.78 µg/m3 29.22 °C N/A 998.16 mbar 2.31 m/s 304.75 Deg 0.59 µg/m3
2022-06-08 16:00 4.56 µg/m3 88.37 µg/m3 7.91 µg/m3 30.35 °C N/A 998.34 mbar 2.33 m/s 310.12 Deg 0.66 µg/m3
2022-06-08 15:00 6.32 µg/m3 89.58 µg/m3 7.76 µg/m3 30.76 °C N/A 998.60 mbar 1.78 m/s 318.68 Deg 0.99 µg/m3
2022-06-08 14:00 6.66 µg/m3 91.12 µg/m3 8.17 µg/m3 31.2 °C N/A 998.66 mbar 1.78 m/s 330.73 Deg 1.02 µg/m3
2022-06-08 13:00 6.51 µg/m3 94.2 µg/m3 7.06 µg/m3 30.46 °C N/A 999.03 mbar 1.44 m/s 166.2 Deg 0.99 µg/m3
2022-06-08 12:00 6.32 µg/m3 95.34 µg/m3 7.61 µg/m3 30.45 °C N/A 999.40 mbar 1.39 m/s 342.63 Deg 0.83 µg/m3
2022-06-08 11:00 6.23 µg/m3 97.03 µg/m3 10.61 µg/m3 30.19 °C N/A 999.41 mbar 1.46 m/s 10.92 Deg 0.77 µg/m3
2022-06-08 10:00 12.18 µg/m3 91.42 µg/m3 7.68 µg/m3 30.02 °C N/A 999.49 mbar 0.97 m/s 233 Deg 2.25 µg/m3
2022-06-08 09:00 11.97 µg/m3 88.07 µg/m3 8.06 µg/m3 28.46 °C N/A 999.43 mbar 1.26 m/s 178.13 Deg 1.62 µg/m3
2022-06-08 08:00 257.65 µg/m3 69.72 µg/m3 8.93 µg/m3 26.67 °C N/A 999.13 mbar 1.38 m/s 178.2 Deg 2.46 µg/m3
2022-06-08 07:00 26.42 µg/m3 54.99 µg/m3 5.92 µg/m3 24.35 °C N/A 998.76 mbar 0.63 m/s 285.48 Deg 4.09 µg/m3
2022-06-08 06:00 15.09 µg/m3 59.77 µg/m3 6.09 µg/m3 22.59 °C N/A 998.18 mbar 1.25 m/s 169.99 Deg 0.81 µg/m3
2022-06-08 05:00 9.84 µg/m3 63.4 µg/m3 5.92 µg/m3 22.2 °C N/A 998.32 mbar 1.84 m/s 90.6 Deg 0.21 µg/m3
2022-06-08 04:00 6.31 µg/m3 74 µg/m3 5.22 µg/m3 22.61 °C N/A 998.07 mbar 2.29 m/s 92.29 Deg 0.08 µg/m3
2022-06-08 03:00 4.55 µg/m3 77.61 µg/m3 5.43 µg/m3 22.63 °C N/A 998.16 mbar 2.45 m/s 6.45 Deg 0.14 µg/m3
2022-06-08 02:00 6.03 µg/m3 73.04 µg/m3 5.24 µg/m3 22.67 °C N/A 998.34 mbar 1.52 m/s 92.28 Deg 0.26 µg/m3
2022-06-08 01:00 3.56 µg/m3 77.23 µg/m3 4.11 µg/m3 22.72 °C N/A 998.59 mbar 1.39 m/s 342.17 Deg 0.16 µg/m3
2022-06-08 00:00 3.66 µg/m3 84.85 µg/m3 4.66 µg/m3 23.17 °C N/A 998.86 mbar 1.83 m/s 259.67 Deg 0.22 µg/m3
2022-06-07 23:00 6.73 µg/m3 84.32 µg/m3 4.96 µg/m3 23.87 °C N/A 999.34 mbar 1.48 m/s 317.38 Deg 0.32 µg/m3
2022-06-07 22:00 7.51 µg/m3 78.18 µg/m3 5.73 µg/m3 23.73 °C N/A 999.51 mbar 1.31 m/s 306.13 Deg 0.21 µg/m3
2022-06-07 21:00 5.79 µg/m3 88.45 µg/m3 6.49 µg/m3 24.16 °C N/A 999.25 mbar 0.77 m/s 325.48 Deg 0.08 µg/m3
2022-06-07 20:00 12.06 µg/m3 87.62 µg/m3 5.45 µg/m3 25.41 °C N/A 998.93 mbar 1.2 m/s 333.72 Deg 0.12 µg/m3
2022-06-07 19:00 5.64 µg/m3 100.05 µg/m3 6.83 µg/m3 27.27 °C N/A 998.62 mbar 1.67 m/s 8.97 Deg 0.16 µg/m3
2022-06-07 18:00 7.87 µg/m3 103.16 µg/m3 7.23 µg/m3 27.66 °C N/A 998.33 mbar 1.93 m/s 185.33 Deg 0.52 µg/m3
2022-06-07 17:00 3.96 µg/m3 109.81 µg/m3 8 µg/m3 28.16 °C N/A 998.51 mbar 2.34 m/s 25.43 Deg 0.32 µg/m3
2022-06-07 16:00 3.54 µg/m3 112.94 µg/m3 8.08 µg/m3 28.74 °C N/A 999.14 mbar 2.28 m/s 31.25 Deg 0.47 µg/m3
2022-06-07 15:00 4.11 µg/m3 111.28 µg/m3 7.7 µg/m3 29.43 °C N/A 999.56 mbar 2.13 m/s 96.88 Deg 0.36 µg/m3
2022-06-07 14:00 3.88 µg/m3 106.59 µg/m3 8.04 µg/m3 30.21 °C N/A 999.75 mbar 1.89 m/s 9.02 Deg 0.4 µg/m3
2022-06-07 13:00 5.52 µg/m3 107.84 µg/m3 10.54 µg/m3 31.23 °C N/A 999.81 mbar 2.2 m/s 178.62 Deg 0.52 µg/m3
2022-06-07 12:00 7.85 µg/m3 99.26 µg/m3 10.44 µg/m3 31.06 °C N/A 999.94 mbar 1.45 m/s 178.6 Deg 1.02 µg/m3
2022-06-07 11:00 7.63 µg/m3 91.74 µg/m3 7.78 µg/m3 29.94 °C N/A 1,000.43 mbar 1.72 m/s 238.33 Deg 1.17 µg/m3
2022-06-07 10:00 9.2 µg/m3 85.3 µg/m3 9.61 µg/m3 31.15 °C N/A 1,000.26 mbar 1.31 m/s 202.02 Deg 1.51 µg/m3
2022-06-07 09:00 11.27 µg/m3 72.2 µg/m3 10.42 µg/m3 28.95 °C N/A 999.91 mbar 1.78 m/s 24.65 Deg 1.64 µg/m3
2022-06-07 08:00 14.78 µg/m3 61.34 µg/m3 8.74 µg/m3 26.65 °C N/A 999.91 mbar 1.49 m/s 17.08 Deg 2.62 µg/m3
2022-06-07 07:00 10.14 µg/m3 68.51 µg/m3 6.98 µg/m3 25.45 °C N/A 999.82 mbar 1.73 m/s 174.47 Deg 0.86 µg/m3
2022-06-07 06:00 10.03 µg/m3 75.36 µg/m3 6.64 µg/m3 25.93 °C N/A 999.86 mbar 1.28 m/s 346.33 Deg 0.41 µg/m3
2022-06-07 05:00 6.05 µg/m3 78.57 µg/m3 5.96 µg/m3 25.06 °C N/A 1,000.06 mbar 1.24 m/s 334.75 Deg 0.2 µg/m3
2022-06-07 04:00 3.79 µg/m3 73.47 µg/m3 5.92 µg/m3 23.95 °C N/A 1,000.46 mbar 1.63 m/s 265.17 Deg 0.17 µg/m3
2022-06-07 03:00 6.07 µg/m3 67.74 µg/m3 6.55 µg/m3 23.55 °C N/A 1,001.02 mbar 1.5 m/s 333.55 Deg 0.13 µg/m3
2022-06-07 02:00 5.01 µg/m3 67.85 µg/m3 5.85 µg/m3 24.45 °C N/A 1,001.06 mbar 1.38 m/s 333.18 Deg 0.23 µg/m3
2022-06-07 01:00 5.54 µg/m3 70.58 µg/m3 6.89 µg/m3 24.73 °C N/A 1,001.10 mbar 1.18 m/s 336.87 Deg 0.16 µg/m3
2022-06-07 00:00 5.6 µg/m3 73.27 µg/m3 5.68 µg/m3 24.64 °C N/A 1,001.36 mbar 1.27 m/s 327.53 Deg 0.12 µg/m3
2022-06-06 23:00 4.17 µg/m3 79.37 µg/m3 7.23 µg/m3 24.33 °C N/A 1,001.53 mbar 1.53 m/s 258.03 Deg 0.11 µg/m3
2022-06-06 22:00 7.09 µg/m3 83.36 µg/m3 8.38 µg/m3 25.69 °C N/A 1,001.45 mbar 1.77 m/s 253.72 Deg 0.13 µg/m3
2022-06-06 21:00 7.38 µg/m3 84.46 µg/m3 7.7 µg/m3 25.35 °C N/A 1,001.39 mbar 1.55 m/s 250.28 Deg 0.16 µg/m3
2022-06-06 20:00 8.11 µg/m3 85.92 µg/m3 8.44 µg/m3 25.48 °C N/A 1,001.36 mbar 1.53 m/s 334.63 Deg 0.23 µg/m3
2022-06-06 19:00 7.57 µg/m3 88.17 µg/m3 9.8 µg/m3 26.66 °C N/A 1,001.27 mbar 1.96 m/s 319.58 Deg 0.3 µg/m3
2022-06-06 18:00 8.22 µg/m3 84.44 µg/m3 13.77 µg/m3 27.12 °C N/A 1,001.39 mbar 2.1 m/s 316.09 Deg 0.74 µg/m3
2022-06-06 17:00 7.89 µg/m3 80.13 µg/m3 16.44 µg/m3 27.06 °C N/A 1,001.66 mbar 2.03 m/s 326.42 Deg 1.1 µg/m3
2022-06-06 16:00 5.52 µg/m3 83.01 µg/m3 15.09 µg/m3 26.9 °C N/A 1,001.77 mbar 2.52 m/s 314.37 Deg 0.82 µg/m3
2022-06-06 15:00 7.67 µg/m3 87.37 µg/m3 14.28 µg/m3 27.49 °C N/A 1,002.08 mbar 2.21 m/s 321.03 Deg 1.18 µg/m3
2022-06-06 14:00 7.28 µg/m3 85.12 µg/m3 11.86 µg/m3 27.27 °C N/A 1,002.53 mbar 2.26 m/s 315.15 Deg 1.42 µg/m3
2022-06-06 13:00 6.12 µg/m3 86.15 µg/m3 12.79 µg/m3 27.97 °C N/A 1,002.65 mbar 2.3 m/s 342.28 Deg 0.94 µg/m3
2022-06-06 12:00 6.35 µg/m3 86.08 µg/m3 13.94 µg/m3 28.1 °C N/A 1,002.54 mbar 2.08 m/s 327.98 Deg 1.03 µg/m3
2022-06-06 11:00 6.39 µg/m3 85.66 µg/m3 13.37 µg/m3 28.52 °C N/A 1,002.46 mbar 1.69 m/s 328.05 Deg 0.81 µg/m3
2022-06-06 10:00 8.09 µg/m3 79.3 µg/m3 10.69 µg/m3 27.49 °C N/A 1,002.61 mbar 1.85 m/s 329.3 Deg 1.07 µg/m3
2022-06-06 09:00 8.8 µg/m3 75.85 µg/m3 9.25 µg/m3 27.22 °C N/A 1,002.76 mbar 1.6 m/s 337.73 Deg 1.25 µg/m3
2022-06-06 08:00 12.16 µg/m3 71.4 µg/m3 7.19 µg/m3 26.1 °C N/A 1,003.06 mbar 1.69 m/s 321.65 Deg 1.87 µg/m3
2022-06-06 07:00 11.81 µg/m3 68.05 µg/m3 7.78 µg/m3 24.73 °C N/A 1,003.15 mbar 2 m/s 307.95 Deg 1.19 µg/m3
2022-06-06 06:00 8.29 µg/m3 68.77 µg/m3 8.44 µg/m3 23.68 °C N/A 1,003.26 mbar 1.42 m/s 315.49 Deg 0.37 µg/m3
2022-06-06 05:00 4.26 µg/m3 75.77 µg/m3 8.78 µg/m3 23.95 °C N/A 1,002.85 mbar 1.43 m/s 336.03 Deg 0.15 µg/m3
2022-06-06 04:00 4.94 µg/m3 85.51 µg/m3 8.29 µg/m3 24.62 °C N/A 1,002.63 mbar 1.47 m/s 328.84 Deg 0.08 µg/m3
2022-06-06 03:00 5.4 µg/m3 95.47 µg/m3 9.95 µg/m3 25.48 °C N/A 1,002.76 mbar 1.2 m/s 328.55 Deg 0.03 µg/m3
2022-06-06 02:00 7.79 µg/m3 92.42 µg/m3 10.44 µg/m3 25.55 °C N/A 1,002.97 mbar 1.54 m/s 327.75 Deg 0.06 µg/m3
2022-06-06 01:00 12.06 µg/m3 85.07 µg/m3 11.73 µg/m3 25.67 °C N/A 1,003.56 mbar 1.35 m/s 334 Deg 0.12 µg/m3
2022-06-06 00:00 13.06 µg/m3 88.49 µg/m3 9.82 µg/m3 26.05 °C N/A 1,003.98 mbar 1.06 m/s 323.48 Deg -0.02 µg/m3
2022-06-05 23:00 13.87 µg/m3 82.13 µg/m3 10.69 µg/m3 26.67 °C N/A 1,004.10 mbar 0.86 m/s 333.37 Deg -0.09 µg/m3
2022-06-05 22:00 11.63 µg/m3 77.91 µg/m3 15.96 µg/m3 27.08 °C N/A 1,004.13 mbar 0.89 m/s 261.1 Deg -0.07 µg/m3
2022-06-05 21:00 23.51 µg/m3 67.15 µg/m3 12.37 µg/m3 27.11 °C N/A 1,003.96 mbar 0.48 m/s 291.77 Deg 0.02 µg/m3
2022-06-05 20:00 10.09 µg/m3 85.47 µg/m3 9.63 µg/m3 26.96 °C N/A 1,003.93 mbar 0.84 m/s 333.69 Deg 0.07 µg/m3
2022-06-05 19:00 10.59 µg/m3 91.29 µg/m3 5.85 µg/m3 28.79 °C N/A 1,003.72 mbar 1.2 m/s 340.3 Deg 0.27 µg/m3
2022-06-05 18:00 3.46 µg/m3 92.45 µg/m3 5.73 µg/m3 31.18 °C N/A 1,003.40 mbar 1.13 m/s 329.4 Deg 0.29 µg/m3
2022-06-05 17:00 3.02 µg/m3 86.34 µg/m3 8.04 µg/m3 33.17 °C N/A 1,003.53 mbar 1.58 m/s 323.67 Deg 0.29 µg/m3
2022-06-05 16:00 3.46 µg/m3 96.77 µg/m3 7.11 µg/m3 34.11 °C N/A 1,003.94 mbar 1.3 m/s 333.3 Deg 0.36 µg/m3
2022-06-05 15:00 4.16 µg/m3 106.63 µg/m3 4.86 µg/m3 33.94 °C N/A 1,004.29 mbar 1.82 m/s 92.67 Deg 0.28 µg/m3
2022-06-05 14:00 4.8 µg/m3 99.09 µg/m3 5.24 µg/m3 34.31 °C N/A 1,004.32 mbar 2.32 m/s 26.7 Deg 0.5 µg/m3
2022-06-05 13:00 5.13 µg/m3 92.53 µg/m3 5.56 µg/m3 33.99 °C N/A 1,004.55 mbar 2.18 m/s 27.62 Deg 0.65 µg/m3
2022-06-05 12:00 5.59 µg/m3 92.93 µg/m3 6.38 µg/m3 33.4 °C N/A 1,004.59 mbar 2.27 m/s 105.63 Deg 0.69 µg/m3
2022-06-05 11:00 6.8 µg/m3 94.82 µg/m3 7.23 µg/m3 32.64 °C N/A 1,004.64 mbar 2.04 m/s 173 Deg 0.88 µg/m3
2022-06-05 10:00 5.55 µg/m3 94.12 µg/m3 8.7 µg/m3 31.26 °C N/A 1,004.62 mbar 2.54 m/s 347.28 Deg 0.74 µg/m3
2022-06-05 09:00 5.76 µg/m3 94.88 µg/m3 7.66 µg/m3 30.15 °C N/A 1,004.93 mbar 2.18 m/s 348.2 Deg 0.7 µg/m3
2022-06-05 08:00 7.24 µg/m3 92.18 µg/m3 6.72 µg/m3 28.99 °C N/A 1,004.99 mbar 2.11 m/s 258.66 Deg 0.63 µg/m3
2022-06-05 07:00 8.45 µg/m3 87.06 µg/m3 5.49 µg/m3 27.21 °C N/A 1,004.66 mbar 1.3 m/s 335.85 Deg 0.44 µg/m3
2022-06-05 06:00 8.78 µg/m3 89.68 µg/m3 3.79 µg/m3 25.67 °C N/A 1,004.49 mbar 0.64 m/s 316.42 Deg 0.22 µg/m3
2022-06-05 05:00 5.69 µg/m3 97.34 µg/m3 4.88 µg/m3 26.35 °C N/A 1,004.09 mbar 0.94 m/s 347.46 Deg 0.23 µg/m3
2022-06-05 04:00 8.15 µg/m3 97.3 µg/m3 4.94 µg/m3 26.95 °C N/A 1,003.86 mbar 1.01 m/s 90.16 Deg 0.14 µg/m3
2022-06-05 03:00 5.56 µg/m3 103.52 µg/m3 4.98 µg/m3 27.2 °C N/A 1,003.97 mbar 0.55 m/s 319.19 Deg 0.07 µg/m3
2022-06-05 02:00 11.61 µg/m3 102.44 µg/m3 5.68 µg/m3 27.01 °C N/A 1,004.59 mbar 0.79 m/s 320.18 Deg 0.23 µg/m3
2022-06-05 01:00 9.94 µg/m3 96.35 µg/m3 9.91 µg/m3 26.9 °C N/A 1,005.16 mbar 0.74 m/s 340.35 Deg 0.15 µg/m3
2022-06-05 00:00 19.55 µg/m3 88.4 µg/m3 7.55 µg/m3 27.04 °C N/A 1,005.13 mbar 0.65 m/s 313.34 Deg -0.03 µg/m3
2022-06-04 23:00 11.92 µg/m3 87.72 µg/m3 5.11 µg/m3 27.26 °C N/A 1,005.07 mbar 0.48 m/s 227.97 Deg -0.06 µg/m3
2022-06-04 22:00 10.42 µg/m3 85.11 µg/m3 6.94 µg/m3 27.87 °C N/A 1,005.32 mbar 0.61 m/s 288.71 Deg 0.1 µg/m3
2022-06-04 21:00 17.33 µg/m3 77.26 µg/m3 12.39 µg/m3 27.84 °C N/A 1,005.34 mbar 0.59 m/s 303.87 Deg 0.14 µg/m3
2022-06-04 20:00 14.98 µg/m3 84.16 µg/m3 13.26 µg/m3 28.57 °C N/A 1,005.04 mbar 1.22 m/s 344.87 Deg 0.16 µg/m3
2022-06-04 19:00 12.61 µg/m3 92.03 µg/m3 12.14 µg/m3 30.79 °C N/A 1,004.56 mbar 1.1 m/s 166.43 Deg 0.27 µg/m3
2022-06-04 18:00 7.24 µg/m3 116.06 µg/m3 50.74 µg/m3 32.34 °C N/A 1,004.21 mbar 0.76 m/s 179.39 Deg 0.25 µg/m3
2022-06-04 17:00 15.49 µg/m3 106.88 µg/m3 36.33 µg/m3 32.93 °C N/A 1,004.17 mbar 1.21 m/s 256.79 Deg 0.56 µg/m3
2022-06-04 16:00 8.47 µg/m3 118.18 µg/m3 12.37 µg/m3 34.2 °C N/A 1,004.17 mbar 1.22 m/s 260.43 Deg 0.39 µg/m3
2022-06-04 15:00 5.55 µg/m3 103.26 µg/m3 4.62 µg/m3 33.53 °C N/A 1,004.55 mbar 1.61 m/s 102.57 Deg 0.46 µg/m3
2022-06-04 14:00 4.56 µg/m3 94.12 µg/m3 5.09 µg/m3 32.87 °C N/A 1,004.92 mbar 2.28 m/s 22.58 Deg 0.53 µg/m3
2022-06-04 13:00 8.83 µg/m3 92.73 µg/m3 6.13 µg/m3 32.26 °C N/A 1,005.16 mbar 2.26 m/s 102.2 Deg 1.11 µg/m3
2022-06-04 12:00 7.88 µg/m3 93.3 µg/m3 6.38 µg/m3 32 °C N/A 1,005.33 mbar 2.17 m/s 106.89 Deg 1.04 µg/m3
2022-06-04 11:00 9.37 µg/m3 91.03 µg/m3 7.17 µg/m3 30.68 °C N/A 1,005.51 mbar 2.1 m/s 8.63 Deg 1.33 µg/m3
2022-06-04 10:00 13.91 µg/m3 86.22 µg/m3 8.7 µg/m3 29.68 °C N/A 1,005.40 mbar 2.07 m/s 21.05 Deg 2.05 µg/m3
2022-06-04 09:00 14.66 µg/m3 88.43 µg/m3 9.69 µg/m3 29.67 °C N/A 1,005.17 mbar 2.08 m/s 26.47 Deg 1.82 µg/m3
2022-06-04 08:00 21.2 µg/m3 80.77 µg/m3 9.63 µg/m3 28.65 °C N/A 1,005.01 mbar 1.25 m/s 19.04 Deg 3.04 µg/m3
2022-06-04 07:00 33.94 µg/m3 60.45 µg/m3 9.23 µg/m3 26.86 °C N/A 1,004.78 mbar 1.04 m/s 333.89 Deg 3.23 µg/m3
2022-06-04 06:00 41.22 µg/m3 53 µg/m3 7.34 µg/m3 24.93 °C N/A 1,004.44 mbar 0.74 m/s 338.64 Deg 3.35 µg/m3
2022-06-04 05:00 35.3 µg/m3 42.43 µg/m3 5.79 µg/m3 24.22 °C N/A 1,004.08 mbar 0.29 m/s 299.39 Deg 0.75 µg/m3
2022-06-04 04:00 27.23 µg/m3 53.87 µg/m3 6.3 µg/m3 24.23 °C N/A 1,003.94 mbar 0.43 m/s 305.95 Deg -0.33 µg/m3
2022-06-04 03:00 39.82 µg/m3 43.53 µg/m3 6.57 µg/m3 24.44 °C N/A 1,004.22 mbar 0.33 m/s 290.48 Deg 0.33 µg/m3
2022-06-04 02:00 53.03 µg/m3 28.16 µg/m3 7.85 µg/m3 24.3 °C N/A 1,004.57 mbar 0.19 m/s 297.14 Deg 0.42 µg/m3
2022-06-04 01:00 44.7 µg/m3 47.92 µg/m3 8.91 µg/m3 24.9 °C N/A 1,004.71 mbar 0.33 m/s 298.59 Deg -0.23 µg/m3
2022-06-04 00:00 70 µg/m3 23.66 µg/m3 9.95 µg/m3 25.02 °C N/A 1,005.07 mbar 0.42 m/s 299.53 Deg -0.12 µg/m3
2022-06-03 23:00 51.61 µg/m3 39.42 µg/m3 9.65 µg/m3 25.09 °C N/A 1,005.29 mbar 0.49 m/s 300.92 Deg -0.12 µg/m3
2022-06-03 22:00 31.49 µg/m3 67.96 µg/m3 8.25 µg/m3 25.26 °C N/A 1,005.21 mbar 0.5 m/s 293.57 Deg -0.02 µg/m3
2022-06-03 21:00 20.85 µg/m3 85.73 µg/m3 6.51 µg/m3 25.78 °C N/A 1,005.06 mbar 0.88 m/s 104.23 Deg 0.03 µg/m3
2022-06-03 20:00 10.97 µg/m3 98.35 µg/m3 6.07 µg/m3 26.15 °C N/A 1,004.58 mbar 1.21 m/s 101.72 Deg 0 µg/m3
2022-06-03 19:00 8.64 µg/m3 98.76 µg/m3 5.75 µg/m3 27.59 °C N/A 1,004.58 mbar 1.7 m/s 27.63 Deg 0.11 µg/m3
2022-06-03 18:00 12.36 µg/m3 101.13 µg/m3 7.74 µg/m3 29.24 °C N/A 1,004.25 mbar 1.56 m/s 18.88 Deg 0.61 µg/m3
2022-06-03 17:00 13.04 µg/m3 105.15 µg/m3 9.02 µg/m3 30.79 °C N/A 1,004.11 mbar 1.81 m/s 180.38 Deg 1.05 µg/m3
2022-06-03 16:00 16.25 µg/m3 104.16 µg/m3 10.1 µg/m3 30.9 °C N/A 1,004.39 mbar 1.8 m/s 17.4 Deg 1.61 µg/m3
2022-06-03 15:00 13.41 µg/m3 112.9 µg/m3 9.82 µg/m3 31.15 °C N/A 1,004.55 mbar 1.74 m/s 14.5 Deg 1.32 µg/m3
2022-06-03 14:00 12.92 µg/m3 116.06 µg/m3 8.87 µg/m3 31.6 °C N/A 1,004.78 mbar 2.01 m/s 30.45 Deg 1.25 µg/m3
2022-06-03 13:00 12.38 µg/m3 110.63 µg/m3 10.14 µg/m3 31.37 °C N/A 1,004.91 mbar 1.74 m/s 20.62 Deg 1.39 µg/m3
2022-06-03 12:00 16.36 µg/m3 101.5 µg/m3 14.15 µg/m3 30.87 °C N/A 1,005.10 mbar 1.66 m/s 18.92 Deg 2.09 µg/m3
2022-06-03 11:00 21.85 µg/m3 98.31 µg/m3 11.94 µg/m3 30 °C N/A 1,005.10 mbar 1.6 m/s 93.68 Deg 2.73 µg/m3
2022-06-03 10:00 19.49 µg/m3 94.22 µg/m3 9.48 µg/m3 29.81 °C N/A 1,004.71 mbar 1.41 m/s 20.11 Deg 2.49 µg/m3
2022-06-03 09:00 19.5 µg/m3 90.37 µg/m3 11.01 µg/m3 29.42 °C N/A 1,004.45 mbar 0.94 m/s 176.97 Deg 2.55 µg/m3
2022-06-03 08:00 30.55 µg/m3 78.3 µg/m3 11.92 µg/m3 28.47 °C N/A 1,004.34 mbar 0.99 m/s 43 Deg 4.27 µg/m3
2022-06-03 07:00 39.72 µg/m3 55.15 µg/m3 11.88 µg/m3 26.58 °C N/A 1,004.03 mbar 0.7 m/s 188.93 Deg 4.65 µg/m3
2022-06-03 06:00 37.78 µg/m3 55.69 µg/m3 9.99 µg/m3 24.05 °C N/A 1,003.95 mbar 0.6 m/s 348.33 Deg 0.98 µg/m3
2022-06-03 05:00 43.17 µg/m3 30.44 µg/m3 8.23 µg/m3 22.23 °C N/A 1,003.79 mbar 0.41 m/s 288.22 Deg 0.05 µg/m3
2022-06-03 04:00 30.42 µg/m3 46.45 µg/m3 7.72 µg/m3 22.2 °C N/A 1,003.77 mbar 0.46 m/s 279.88 Deg -0.14 µg/m3
2022-06-03 03:00 17.78 µg/m3 68.04 µg/m3 8.19 µg/m3 22.81 °C N/A 1,003.91 mbar 0.79 m/s 231.07 Deg -0.04 µg/m3
2022-06-03 02:00 20.5 µg/m3 68.81 µg/m3 8.29 µg/m3 23.59 °C N/A 1,003.94 mbar 0.72 m/s 256.73 Deg -0.12 µg/m3
2022-06-03 01:00 18.69 µg/m3 65.75 µg/m3 9.61 µg/m3 23.67 °C N/A 1,004.13 mbar 0.4 m/s 296.49 Deg -0.22 µg/m3
2022-06-03 00:00 15.8 µg/m3 78.21 µg/m3 13.11 µg/m3 23.6 °C N/A 1,004.41 mbar 0.29 m/s 277.56 Deg -0.2 µg/m3
2022-06-02 23:00 22.93 µg/m3 74.86 µg/m3 16.17 µg/m3 23.89 °C N/A 1,004.32 mbar 0.48 m/s 221.29 Deg -0.05 µg/m3
2022-06-02 22:00 33.72 µg/m3 68.66 µg/m3 16.47 µg/m3 24.58 °C N/A 1,004.38 mbar 0.52 m/s 256.35 Deg -0.03 µg/m3
2022-06-02 21:00 27.98 µg/m3 71.73 µg/m3 12.07 µg/m3 25.51 °C N/A 1,004.11 mbar 0.6 m/s 276.87 Deg 0.1 µg/m3
2022-06-02 20:00 20.91 µg/m3 81.8 µg/m3 7.4 µg/m3 26.62 °C N/A 1,003.58 mbar 0.74 m/s 250.33 Deg 0.18 µg/m3
2022-06-02 19:00 10.88 µg/m3 95.58 µg/m3 7.08 µg/m3 27.81 °C N/A 1,003.10 mbar 1.22 m/s 231.53 Deg 0.82 µg/m3
2022-06-02 18:00 11.74 µg/m3 94.69 µg/m3 8.68 µg/m3 29.26 °C N/A 1,002.64 mbar 1.68 m/s 211.63 Deg 1.39 µg/m3
2022-06-02 17:00 22.25 µg/m3 86.63 µg/m3 7.4 µg/m3 30.21 °C N/A 1,002.33 mbar 2.45 m/s 170.08 Deg 3.13 µg/m3
2022-06-02 16:00 22.52 µg/m3 84.92 µg/m3 6.45 µg/m3 30.96 °C N/A 1,002.55 mbar 2.4 m/s 163.35 Deg 3.59 µg/m3
2022-06-02 15:00 14.58 µg/m3 92.09 µg/m3 7.91 µg/m3 30.93 °C N/A 1,002.79 mbar 2.42 m/s 167.27 Deg 1.58 µg/m3
2022-06-02 14:00 19.52 µg/m3 89.28 µg/m3 10.73 µg/m3 30.44 °C N/A 1,002.78 mbar 2.92 m/s 149.78 Deg 3.41 µg/m3
2022-06-02 13:00 19.03 µg/m3 89.4 µg/m3 12.84 µg/m3 29.97 °C N/A 1,003.00 mbar 3.12 m/s 149.95 Deg 3.4 µg/m3
2022-06-02 12:00 39.8 µg/m3 67.29 µg/m3 11.31 µg/m3 29.22 °C N/A 1,003.34 mbar 2.4 m/s 200.92 Deg 10.34 µg/m3
2022-06-02 11:00 28.43 µg/m3 80.52 µg/m3 10.27 µg/m3 29.24 °C N/A 1,003.32 mbar 2.08 m/s 206.22 Deg 5.29 µg/m3
2022-06-02 10:00 20.86 µg/m3 91.97 µg/m3 13.52 µg/m3 29.12 °C N/A 1,003.26 mbar 2.23 m/s 175.82 Deg 2.85 µg/m3
2022-06-02 09:00 32.59 µg/m3 76.89 µg/m3 17.95 µg/m3 28.67 °C N/A 1,003.03 mbar 1.49 m/s 174.86 Deg 5.16 µg/m3
2022-06-02 08:00 46.6 µg/m3 48.1 µg/m3 22.68 µg/m3 26.84 °C N/A 1,002.83 mbar 1.38 m/s 174.22 Deg 12.11 µg/m3
2022-06-02 07:00 62.27 µg/m3 15.29 µg/m3 18.16 µg/m3 24.71 °C N/A 1,002.66 mbar 0.65 m/s 184.34 Deg 38.52 µg/m3
2022-06-02 06:00 47.09 µg/m3 18.16 µg/m3 12.11 µg/m3 23.82 °C N/A 1,002.43 mbar 0.58 m/s 233.79 Deg 12.47 µg/m3
2022-06-02 05:00 41.19 µg/m3 8.91 µg/m3 8.89 µg/m3 22.85 °C N/A 1,002.09 mbar 0.24 m/s 224.54 Deg 5.85 µg/m3
2022-06-02 04:00 21.95 µg/m3 36.65 µg/m3 8.91 µg/m3 22.89 °C N/A 1,001.78 mbar 0.3 m/s 280.97 Deg -0.63 µg/m3
2022-06-02 03:00 22.58 µg/m3 34.19 µg/m3 8.04 µg/m3 23.19 °C N/A 1,002.01 mbar 0.4 m/s 265.99 Deg 0.15 µg/m3
2022-06-02 02:00 18.05 µg/m3 49.1 µg/m3 10.29 µg/m3 24.03 °C N/A 1,002.13 mbar 0.35 m/s 248.84 Deg -0.38 µg/m3
2022-06-02 01:00 22.66 µg/m3 48.61 µg/m3 12.75 µg/m3 24.79 °C N/A 1,002.17 mbar 0.68 m/s 169.64 Deg -0.48 µg/m3
2022-06-02 00:00 28.02 µg/m3 50.78 µg/m3 20.8 µg/m3 25.33 °C N/A 1,002.49 mbar 0.65 m/s 237.73 Deg -0.63 µg/m3
2022-06-01 23:00 30.77 µg/m3 48.91 µg/m3 16.68 µg/m3 25.13 °C N/A 1,002.72 mbar 0.66 m/s 259.23 Deg -0.36 µg/m3
2022-06-01 22:00 36.24 µg/m3 57.49 µg/m3 15.74 µg/m3 26.01 °C N/A 1,002.65 mbar 0.99 m/s 182.48 Deg 0.1 µg/m3
2022-06-01 21:00 44.94 µg/m3 52.85 µg/m3 14.32 µg/m3 27.1 °C N/A 1,002.34 mbar 0.93 m/s 183.83 Deg 0.54 µg/m3
2022-06-01 20:00 63.94 µg/m3 38.13 µg/m3 14.15 µg/m3 28.46 °C N/A 1,001.83 mbar 1.08 m/s 164.2 Deg 0.95 µg/m3
2022-06-01 19:00 52.65 µg/m3 44.61 µg/m3 12.01 µg/m3 30.77 °C N/A 1,001.20 mbar 1.47 m/s 166.08 Deg 2.41 µg/m3
2022-06-01 18:00 46.27 µg/m3 51.29 µg/m3 10.8 µg/m3 32.3 °C N/A 1,000.88 mbar 1.31 m/s 166.22 Deg 5.89 µg/m3
2022-06-01 17:00 21.84 µg/m3 71.46 µg/m3 11.54 µg/m3 32.54 °C N/A 1,001.21 mbar 1.47 m/s 183.1 Deg 3.07 µg/m3
2022-06-01 16:00 16.22 µg/m3 77.34 µg/m3 12.35 µg/m3 33.23 °C N/A 1,001.47 mbar 2.01 m/s 180.2 Deg 2.56 µg/m3
2022-06-01 15:00 10.04 µg/m3 88.25 µg/m3 12.33 µg/m3 35.08 °C N/A 1,001.63 mbar 1.49 m/s 12.02 Deg 1.11 µg/m3
2022-06-01 14:00 13.71 µg/m3 91.97 µg/m3 13.09 µg/m3 35.04 °C N/A 1,001.84 mbar 1.34 m/s 180.11 Deg 1.94 µg/m3
2022-06-01 13:00 10.16 µg/m3 95.51 µg/m3 12.67 µg/m3 34.11 °C N/A 1,002.19 mbar 1.57 m/s 95.67 Deg 1.34 µg/m3
2022-06-01 12:00 14.62 µg/m3 84.77 µg/m3 10.27 µg/m3 32.72 °C N/A 1,002.71 mbar 1.69 m/s 16.37 Deg 2.34 µg/m3
2022-06-01 11:00 17.25 µg/m3 69.41 µg/m3 10.18 µg/m3 32.32 °C N/A 1,002.76 mbar 1.56 m/s 28.67 Deg 3.58 µg/m3
2022-06-01 10:00 11.32 µg/m3 74.03 µg/m3 11.16 µg/m3 33.14 °C N/A 1,002.43 mbar 0.98 m/s 176.07 Deg 2.22 µg/m3
2022-06-01 09:00 11.83 µg/m3 71.51 µg/m3 11.92 µg/m3 31.22 °C N/A 1,002.14 mbar 1.06 m/s 154.87 Deg 2.35 µg/m3
2022-06-01 08:00 16.36 µg/m3 63.54 µg/m3 11.46 µg/m3 28.67 °C N/A 1,002.24 mbar 1.6 m/s 294.87 Deg 3.02 µg/m3
2022-06-01 07:00 27.84 µg/m3 52.72 µg/m3 10.48 µg/m3 27.27 °C N/A 1,002.05 mbar 1.03 m/s 325.17 Deg 4.48 µg/m3
2022-06-01 06:00 41.84 µg/m3 35.41 µg/m3 5.7 µg/m3 26.57 °C N/A 1,001.71 mbar 0.71 m/s 230.49 Deg 4.42 µg/m3
2022-06-01 05:00 8.12 µg/m3 68.65 µg/m3 5.41 µg/m3 25.88 °C N/A 1,001.60 mbar 1.4 m/s 268.5 Deg 0.25 µg/m3
2022-06-01 04:00 2.52 µg/m3 78.19 µg/m3 5.11 µg/m3 26.12 °C N/A 1,001.63 mbar 2.13 m/s 246.35 Deg 0.06 µg/m3
2022-06-01 03:00 3.14 µg/m3 78.17 µg/m3 5.77 µg/m3 26.52 °C N/A 1,001.87 mbar 1.89 m/s 235.97 Deg 0.17 µg/m3
2022-06-01 02:00 1.03 µg/m3 81.18 µg/m3 5.49 µg/m3 27.49 °C N/A 1,002.09 mbar 2.36 m/s 253.8 Deg 0.2 µg/m3
2022-06-01 01:00 1.25 µg/m3 77.89 µg/m3 5.62 µg/m3 27.21 °C N/A 1,002.47 mbar 2.29 m/s 250.7 Deg 0.17 µg/m3
2022-06-01 00:00 1.98 µg/m3 74.46 µg/m3 4.01 µg/m3 26.78 °C N/A 1,002.94 mbar 1.83 m/s 236.4 Deg 0.1 µg/m3
2022-05-31 23:00 2.06 µg/m3 72.8 µg/m3 5.53 µg/m3 25.75 °C N/A 1,003.13 mbar 1.61 m/s 228.2 Deg 0.29 µg/m3
2022-05-31 22:00 5.34 µg/m3 71.44 µg/m3 6.68 µg/m3 25.79 °C N/A 1,003.17 mbar 1.31 m/s 220.88 Deg 0.43 µg/m3
2022-05-31 21:00 7.15 µg/m3 68.41 µg/m3 6.77 µg/m3 25.48 °C N/A 1,002.98 mbar 0.9 m/s 232.6 Deg 0.34 µg/m3
2022-05-31 20:00 11.41 µg/m3 63.4 µg/m3 6.36 µg/m3 26.2 °C N/A 1,002.46 mbar 1.17 m/s 236.78 Deg 0.62 µg/m3
2022-05-31 19:00 10.33 µg/m3 68.68 µg/m3 6.87 µg/m3 27.5 °C N/A 1,002.30 mbar 1.24 m/s 242.58 Deg 0.87 µg/m3
2022-05-31 18:00 8.88 µg/m3 75.88 µg/m3 7.53 µg/m3 29.58 °C N/A 1,001.91 mbar 1.73 m/s 232.1 Deg 1.57 µg/m3
2022-05-31 17:00 7.41 µg/m3 81.35 µg/m3 7.49 µg/m3 30.84 °C N/A 1,001.96 mbar 1.97 m/s 238.48 Deg 1.56 µg/m3
2022-05-31 16:00 8.15 µg/m3 82.82 µg/m3 8.63 µg/m3 31.44 °C N/A 1,002.17 mbar 1.94 m/s 221.19 Deg 1.83 µg/m3
2022-05-31 15:00 10.97 µg/m3 82.78 µg/m3 7.64 µg/m3 31.59 °C N/A 1,002.39 mbar 1.89 m/s 227.27 Deg 2.32 µg/m3
2022-05-31 14:00 11.89 µg/m3 81.76 µg/m3 6.79 µg/m3 30.56 °C N/A 1,002.62 mbar 2.47 m/s 206.58 Deg 3.46 µg/m3
2022-05-31 13:00 11.53 µg/m3 77.02 µg/m3 8.06 µg/m3 30.08 °C N/A 1,002.43 mbar 3.17 m/s 217.68 Deg 3.66 µg/m3
2022-05-31 12:00 9.57 µg/m3 78.17 µg/m3 8.4 µg/m3 30.14 °C N/A 1,002.69 mbar 3.35 m/s 207.37 Deg 2.71 µg/m3
2022-05-31 11:00 9.79 µg/m3 74 µg/m3 6.38 µg/m3 29.56 °C N/A 1,002.95 mbar 2.98 m/s 208.15 Deg 3.04 µg/m3
2022-05-31 10:00 8.42 µg/m3 69.25 µg/m3 8.78 µg/m3 28.29 °C N/A 1,002.83 mbar 3.46 m/s 211.77 Deg 2.41 µg/m3
2022-05-31 09:00 8.49 µg/m3 66.33 µg/m3 9.55 µg/m3 27.3 °C N/A 1,002.58 mbar 3.09 m/s 220.38 Deg 2.83 µg/m3
2022-05-31 08:00 17.02 µg/m3 56.28 µg/m3 17.68 µg/m3 26.77 °C N/A 1,002.49 mbar 2.61 m/s 204.57 Deg 4.88 µg/m3
2022-05-31 07:00 50.19 µg/m3 25.99 µg/m3 13.79 µg/m3 25.29 °C N/A 1,002.11 mbar 1.15 m/s 183.2 Deg 21.65 µg/m3
2022-05-31 06:00 48.6 µg/m3 17.63 µg/m3 8.46 µg/m3 22.27 °C N/A 1,002.10 mbar 0.55 m/s 181.64 Deg 21.64 µg/m3
2022-05-31 05:00 27.22 µg/m3 18.59 µg/m3 5.26 µg/m3 20.66 °C N/A 1,001.89 mbar 0.43 m/s 255.33 Deg 1.02 µg/m3
2022-05-31 04:00 17.43 µg/m3 32.89 µg/m3 2.31 µg/m3 21.08 °C N/A 1,001.85 mbar 0.54 m/s 210.76 Deg 0.08 µg/m3
2022-05-31 03:00 9.2 µg/m3 47.86 µg/m3 7.61 µg/m3 22.07 °C N/A 1,001.84 mbar 0.57 m/s 283.7 Deg 0.24 µg/m3
2022-05-31 02:00 4.01 µg/m3 58.69 µg/m3 10.33 µg/m3 22.62 °C N/A 1,001.90 mbar 1.13 m/s 250.3 Deg 0.31 µg/m3
2022-05-31 01:00 2.98 µg/m3 72.95 µg/m3 5.66 µg/m3 24.12 °C N/A 1,002.26 mbar 1.19 m/s 280.02 Deg 0.27 µg/m3
2022-05-31 00:00 3.69 µg/m3 67.45 µg/m3 3.84 µg/m3 23.65 °C N/A 1,001.69 mbar 1.43 m/s 211.44 Deg 0.35 µg/m3
2022-05-30 23:00 3.21 µg/m3 76.69 µg/m3 11.92 µg/m3 23.18 °C N/A 1,001.79 mbar 1.96 m/s 228.79 Deg 0.41 µg/m3
2022-05-30 22:00 6.87 µg/m3 84.01 µg/m3 10.5 µg/m3 22.91 °C N/A 1,001.63 mbar 1.86 m/s 206.83 Deg 0.23 µg/m3
2022-05-30 21:00 8.53 µg/m3 89.27 µg/m3 4.79 µg/m3 22.78 °C N/A 1,001.19 mbar 1.48 m/s 196.87 Deg 0.33 µg/m3
2022-05-30 20:00 5.59 µg/m3 94.41 µg/m3 4.43 µg/m3 23.17 °C N/A 1,000.48 mbar 1.81 m/s 213.02 Deg 0.37 µg/m3
2022-05-30 19:00 7.62 µg/m3 90.95 µg/m3 6.51 µg/m3 24.18 °C N/A 1,000.13 mbar 1.84 m/s 198.94 Deg 0.69 µg/m3
2022-05-30 18:00 7.53 µg/m3 97.48 µg/m3 6.38 µg/m3 25.22 °C N/A 999.68 mbar 2.44 m/s 213.68 Deg 1.11 µg/m3
2022-05-30 17:00 8.06 µg/m3 104.68 µg/m3 7.04 µg/m3 25.79 °C N/A 999.63 mbar 2.96 m/s 212.82 Deg 1.3 µg/m3
2022-05-30 16:00 10.65 µg/m3 98.95 µg/m3 5.43 µg/m3 26.88 °C N/A 999.69 mbar 3.32 m/s 218.9 Deg 1.6 µg/m3
2022-05-30 15:00 7.84 µg/m3 82.73 µg/m3 6.13 µg/m3 29.12 °C N/A 999.54 mbar 3.78 m/s 216.97 Deg 2.19 µg/m3
2022-05-30 14:00 8.74 µg/m3 85.55 µg/m3 6.07 µg/m3 28.79 °C N/A 1,000.04 mbar 3.64 m/s 205.72 Deg 2.5 µg/m3
2022-05-30 13:00 9.22 µg/m3 78.6 µg/m3 4.75 µg/m3 29.01 °C N/A 1,000.15 mbar 3.44 m/s 210.2 Deg 2.91 µg/m3
2022-05-30 12:00 7.47 µg/m3 76.92 µg/m3 4.11 µg/m3 29.68 °C N/A 1,000.17 mbar 3.18 m/s 207.05 Deg 1.95 µg/m3
2022-05-30 11:00 7.24 µg/m3 80.9 µg/m3 4.47 µg/m3 29.09 °C N/A 1,000.16 mbar 3.18 m/s 219.88 Deg 2.3 µg/m3
2022-05-30 10:00 8.73 µg/m3 80.77 µg/m3 5.45 µg/m3 27.92 °C N/A 1,000.21 mbar 2.56 m/s 231.73 Deg 2.31 µg/m3
2022-05-30 09:00 10.49 µg/m3 78.77 µg/m3 12.09 µg/m3 26.5 °C N/A 1,000.14 mbar 2.45 m/s 240.87 Deg 2.32 µg/m3
2022-05-30 08:00 16.03 µg/m3 72.93 µg/m3 11.67 µg/m3 26.28 °C N/A 999.76 mbar 2.2 m/s 247.9 Deg 3.68 µg/m3
2022-05-30 07:00 35.38 µg/m3 51.85 µg/m3 7.25 µg/m3 24.55 °C N/A 999.37 mbar 1.43 m/s 263.46 Deg 6.17 µg/m3
2022-05-30 06:00 41.13 µg/m3 43.08 µg/m3 4.22 µg/m3 22.09 °C N/A 999.01 mbar 1.02 m/s 285.02 Deg 2.81 µg/m3
2022-05-30 05:00 20.9 µg/m3 50.31 µg/m3 2.01 µg/m3 21.04 °C N/A 998.63 mbar 0.61 m/s 255.06 Deg 1.25 µg/m3
2022-05-30 04:00 6.54 µg/m3 75.36 µg/m3 1.86 µg/m3 21.09 °C N/A 998.72 mbar 0.77 m/s 221.96 Deg 0.13 µg/m3
2022-05-30 03:00 8.9 µg/m3 68.77 µg/m3 1.74 µg/m3 20.76 °C N/A 998.82 mbar 0.38 m/s 235.89 Deg 0.05 µg/m3
2022-05-30 02:00 6.91 µg/m3 62.77 µg/m3 1.65 µg/m3 20.48 °C N/A 998.66 mbar 0.35 m/s 289.39 Deg 0.18 µg/m3
2022-05-30 01:00 6.71 µg/m3 76.75 µg/m3 2.48 µg/m3 20.81 °C N/A 998.87 mbar 0.74 m/s 256.29 Deg 0.26 µg/m3
2022-05-30 00:00 10.78 µg/m3 76.73 µg/m3 3.2 µg/m3 20.91 °C N/A 999.00 mbar 0.68 m/s 251.22 Deg 0.25 µg/m3
2022-05-29 23:00 5.78 µg/m3 87.36 µg/m3 3.79 µg/m3 21.56 °C N/A 999.03 mbar 1.19 m/s 282.82 Deg 0.3 µg/m3
2022-05-29 22:00 3.19 µg/m3 90.6 µg/m3 4.39 µg/m3 21.44 °C N/A 998.87 mbar 1.84 m/s 298.05 Deg 0.2 µg/m3
2022-05-29 21:00 3.61 µg/m3 96.21 µg/m3 5.43 µg/m3 21.49 °C N/A 998.20 mbar 1.76 m/s 296.55 Deg 0.26 µg/m3
2022-05-29 20:00 5.77 µg/m3 98.54 µg/m3 5.53 µg/m3 21.88 °C N/A 997.27 mbar 1.71 m/s 291.75 Deg 0.21 µg/m3
2022-05-29 19:00 4.79 µg/m3 99.14 µg/m3 4.77 µg/m3 22.85 °C N/A 996.96 mbar 1.71 m/s 301.57 Deg 0.41 µg/m3
2022-05-29 18:00 3.85 µg/m3 98.99 µg/m3 3.9 µg/m3 23.92 °C N/A 996.52 mbar 1.88 m/s 312.6 Deg 0.55 µg/m3
2022-05-29 17:00 2.4 µg/m3 101 µg/m3 5.03 µg/m3 24.34 °C N/A 996.31 mbar 1.99 m/s 316.87 Deg 0.51 µg/m3
2022-05-29 16:00 2.52 µg/m3 100.04 µg/m3 6.3 µg/m3 24.15 °C N/A 996.24 mbar 2.6 m/s 311.13 Deg 0.45 µg/m3
2022-05-29 15:00 2.92 µg/m3 103.3 µg/m3 5.94 µg/m3 23.76 °C N/A 996.25 mbar 2.51 m/s 311.27 Deg 0.49 µg/m3
2022-05-29 14:00 2.64 µg/m3 97.59 µg/m3 7.19 µg/m3 23.26 °C N/A 996.36 mbar 1.92 m/s 320.68 Deg 0.49 µg/m3
2022-05-29 13:00 2.91 µg/m3 95.54 µg/m3 7.93 µg/m3 22.9 °C N/A 996.28 mbar 2.1 m/s 314.45 Deg 0.47 µg/m3
2022-05-29 12:00 3.88 µg/m3 91.54 µg/m3 7 µg/m3 22.65 °C N/A 996.17 mbar 2.12 m/s 330.3 Deg 0.48 µg/m3
2022-05-29 11:00 4.02 µg/m3 83.26 µg/m3 7.11 µg/m3 22.3 °C N/A 996.05 mbar 2.1 m/s 320.03 Deg 0.7 µg/m3
2022-05-29 10:00 3.96 µg/m3 81.8 µg/m3 6.04 µg/m3 22.08 °C N/A 995.81 mbar 1.96 m/s 334.93 Deg 0.83 µg/m3
2022-05-29 09:00 5.4 µg/m3 86.62 µg/m3 3.92 µg/m3 21.82 °C N/A 995.34 mbar 1.82 m/s 331.2 Deg 1 µg/m3
2022-05-29 08:00 4.99 µg/m3 86.99 µg/m3 1.5 µg/m3 20.96 °C N/A 994.90 mbar 1.82 m/s 343.43 Deg 0.77 µg/m3
2022-05-29 07:00 4.48 µg/m3 83.08 µg/m3 1.27 µg/m3 19.93 °C N/A 994.56 mbar 1.66 m/s 330.38 Deg 0.42 µg/m3
2022-05-29 06:00 3.28 µg/m3 79.75 µg/m3 0.82 µg/m3 19.22 °C N/A 994.17 mbar 1.18 m/s 320.06 Deg 0.25 µg/m3
2022-05-29 05:00 2.04 µg/m3 79.82 µg/m3 1.27 µg/m3 18.88 °C N/A 993.67 mbar 1.15 m/s 325.83 Deg 0.21 µg/m3
2022-05-29 04:00 1.23 µg/m3 82.93 µg/m3 2.5 µg/m3 18.64 °C N/A 993.27 mbar 1.18 m/s 313.46 Deg 0.21 µg/m3
2022-05-29 03:00 2.1 µg/m3 79.51 µg/m3 4.49 µg/m3 19.1 °C N/A 993.23 mbar 1.32 m/s 309.29 Deg 0.13 µg/m3
2022-05-29 02:00 1.19 µg/m3 86.03 µg/m3 4.35 µg/m3 19.66 °C N/A 993.39 mbar 2.31 m/s 305.6 Deg 0.25 µg/m3
2022-05-29 01:00 1.16 µg/m3 96.93 µg/m3 4.75 µg/m3 20.62 °C N/A 993.83 mbar 2.55 m/s 285.4 Deg 0.27 µg/m3
2022-05-29 00:00 1.02 µg/m3 98.2 µg/m3 2.41 µg/m3 20.53 °C N/A 994.21 mbar 3.28 m/s 296.57 Deg 0.23 µg/m3
2022-05-28 23:00 1.66 µg/m3 91.87 µg/m3 2.07 µg/m3 20.59 °C N/A 994.46 mbar 3.02 m/s 279.55 Deg 0.29 µg/m3
2022-05-28 22:00 2.29 µg/m3 90.73 µg/m3 1.99 µg/m3 20.79 °C N/A 994.78 mbar 2.98 m/s 257.43 Deg 0.3 µg/m3
2022-05-28 21:00 2.01 µg/m3 91.01 µg/m3 1.97 µg/m3 20.76 °C N/A 994.80 mbar 2.99 m/s 268.12 Deg 0.26 µg/m3
2022-05-28 20:00 4.45 µg/m3 91.75 µg/m3 1.23 µg/m3 20.9 °C N/A 994.57 mbar 2.43 m/s 268.23 Deg 0.33 µg/m3
2022-05-28 19:00 4 µg/m3 92.4 µg/m3 1.35 µg/m3 21.26 °C N/A 994.49 mbar 2.52 m/s 265.57 Deg 0.47 µg/m3
2022-05-28 18:00 4.06 µg/m3 93.38 µg/m3 1.86 µg/m3 22.06 °C N/A 994.52 mbar 2.56 m/s 258.72 Deg 0.59 µg/m3
2022-05-28 17:00 2.87 µg/m3 94.23 µg/m3 2.88 µg/m3 22.6 °C N/A 994.95 mbar 2.29 m/s 279.53 Deg 0.57 µg/m3
2022-05-28 16:00 2.68 µg/m3 96.31 µg/m3 3.94 µg/m3 22.84 °C N/A 995.34 mbar 2.3 m/s 278.39 Deg 0.55 µg/m3
2022-05-28 15:00 2.52 µg/m3 95.22 µg/m3 4.96 µg/m3 23.59 °C N/A 995.69 mbar 2.32 m/s 286.05 Deg 0.51 µg/m3
2022-05-28 14:00 2.48 µg/m3 93.95 µg/m3 5.53 µg/m3 23.83 °C N/A 996.15 mbar 1.81 m/s 308.55 Deg 0.46 µg/m3
2022-05-28 13:00 3.11 µg/m3 93.51 µg/m3 4.37 µg/m3 23.89 °C N/A 996.48 mbar 1.81 m/s 311.6 Deg 0.49 µg/m3
2022-05-28 12:00 2.78 µg/m3 92.63 µg/m3 4.39 µg/m3 23.62 °C N/A 996.78 mbar 2.17 m/s 251.68 Deg 0.46 µg/m3
2022-05-28 11:00 4.07 µg/m3 93.89 µg/m3 4.79 µg/m3 23.61 °C N/A 996.91 mbar 1.68 m/s 318.82 Deg 0.68 µg/m3
2022-05-28 10:00 5.08 µg/m3 95.79 µg/m3 4.62 µg/m3 23.22 °C N/A 996.91 mbar 1.82 m/s 257.08 Deg 0.85 µg/m3
2022-05-28 09:00 6.98 µg/m3 89.59 µg/m3 5.36 µg/m3 22.31 °C N/A 997.21 mbar 1.96 m/s 335.17 Deg 1.16 µg/m3
2022-05-28 08:00 9.87 µg/m3 83.64 µg/m3 4.18 µg/m3 21.87 °C N/A 997.23 mbar 1.87 m/s 351 Deg 1.66 µg/m3
2022-05-28 07:00 14.41 µg/m3 80.13 µg/m3 2.41 µg/m3 20.86 °C N/A 997.42 mbar 1.63 m/s 337.15 Deg 1.53 µg/m3
2022-05-28 06:00 9.22 µg/m3 79.54 µg/m3 3.58 µg/m3 19.15 °C N/A 997.54 mbar 1.15 m/s 323.07 Deg 0.58 µg/m3
2022-05-28 05:00 6.47 µg/m3 79.75 µg/m3 6.28 µg/m3 19.21 °C N/A 997.43 mbar 1.27 m/s 354.78 Deg 0.22 µg/m3
2022-05-28 04:00 7.2 µg/m3 71.84 µg/m3 4.71 µg/m3 19.57 °C N/A 997.31 mbar 1.52 m/s 335.91 Deg 0.06 µg/m3
2022-05-28 03:00 7.57 µg/m3 73.19 µg/m3 6.17 µg/m3 19.67 °C N/A 997.41 mbar 1.31 m/s 319.01 Deg 0.21 µg/m3
2022-05-28 02:00 7.44 µg/m3 70.92 µg/m3 4.18 µg/m3 19.76 °C N/A 997.67 mbar 1.31 m/s 320.58 Deg 0.25 µg/m3
2022-05-28 01:00 2.68 µg/m3 78.34 µg/m3 5.11 µg/m3 20.14 °C N/A 997.94 mbar 1.31 m/s 309.79 Deg 0.18 µg/m3
2022-05-28 00:00 2.57 µg/m3 79.07 µg/m3 5.15 µg/m3 20.11 °C N/A 998.33 mbar 1.21 m/s 309.75 Deg 0.15 µg/m3
2022-05-27 23:00 3.5 µg/m3 74.9 µg/m3 5.03 µg/m3 20.34 °C N/A 998.40 mbar 0.82 m/s 312.22 Deg 0.2 µg/m3
2022-05-27 22:00 3.49 µg/m3 76.41 µg/m3 6.83 µg/m3 20.61 °C N/A 998.43 mbar 1.18 m/s 303.5 Deg 0.21 µg/m3
2022-05-27 21:00 3.35 µg/m3 79.15 µg/m3 8.19 µg/m3 21.02 °C N/A 997.87 mbar 0.84 m/s 306.76 Deg 0.2 µg/m3
2022-05-27 20:00 6.29 µg/m3 83.47 µg/m3 11.12 µg/m3 21.59 °C N/A 997.42 mbar 1.18 m/s 285.8 Deg 0.35 µg/m3
2022-05-27 19:00 9.32 µg/m3 86.4 µg/m3 8.63 µg/m3 22.3 °C N/A 997.20 mbar 1.56 m/s 219.99 Deg 0.73 µg/m3
2022-05-27 18:00 9.02 µg/m3 84.94 µg/m3 10.12 µg/m3 23.4 °C N/A 996.84 mbar 3.17 m/s 183 Deg 1.35 µg/m3
2022-05-27 17:00 8.17 µg/m3 86.36 µg/m3 10.99 µg/m3 24.03 °C N/A 997.31 mbar 3.83 m/s 176.92 Deg 1.59 µg/m3
2022-05-27 16:00 10.87 µg/m3 84.82 µg/m3 12.77 µg/m3 24.9 °C N/A 997.89 mbar 4.38 m/s 177.27 Deg 2.12 µg/m3
2022-05-27 15:00 12.92 µg/m3 84.34 µg/m3 17.31 µg/m3 25.12 °C N/A 998.45 mbar 4.36 m/s 165.93 Deg 2.54 µg/m3
2022-05-27 14:00 15.52 µg/m3 85.56 µg/m3 16.08 µg/m3 25.92 °C N/A 998.77 mbar 4.87 m/s 168.25 Deg 3.6 µg/m3
2022-05-27 13:00 18.28 µg/m3 80.99 µg/m3 11.99 µg/m3 25.23 °C N/A 998.89 mbar 4.58 m/s 150.42 Deg 4.4 µg/m3
2022-05-27 12:00 15.53 µg/m3 79.74 µg/m3 16.76 µg/m3 24.38 °C N/A 999.86 mbar 3.99 m/s 151.7 Deg 2.05 µg/m3
2022-05-27 11:00 11.93 µg/m3 82.25 µg/m3 10.06 µg/m3 25.13 °C N/A 999.21 mbar 4.91 m/s 138.23 Deg 2.68 µg/m3
2022-05-27 10:00 16.28 µg/m3 76.17 µg/m3 7.42 µg/m3 23.24 °C N/A 999.89 mbar 4.45 m/s 162.78 Deg 2.83 µg/m3
2022-05-27 09:00 28.37 µg/m3 62.69 µg/m3 6.62 µg/m3 22.8 °C N/A 1,002.57 mbar 2.51 m/s 161.4 Deg 1.43 µg/m3
2022-05-27 08:00 28.04 µg/m3 62.54 µg/m3 5.68 µg/m3 22.6 °C N/A 1,001.65 mbar 2.44 m/s 162.22 Deg 2.98 µg/m3
2022-05-27 07:00 27.36 µg/m3 67.05 µg/m3 5.47 µg/m3 22.19 °C N/A 1,001.45 mbar 3.38 m/s 138.32 Deg 2.15 µg/m3
2022-05-27 06:00 22.82 µg/m3 72.09 µg/m3 6.23 µg/m3 22.24 °C N/A 1,002.00 mbar 1.7 m/s 247.72 Deg 0.08 µg/m3
2022-05-27 05:00 18.54 µg/m3 74.45 µg/m3 2.8 µg/m3 22.16 °C N/A 1,000.52 mbar 1.96 m/s 151.9 Deg 0.14 µg/m3
2022-05-27 04:00 8.28 µg/m3 89.72 µg/m3 7.04 µg/m3 22.64 °C N/A 1,000.46 mbar 2.24 m/s 154.43 Deg 0.18 µg/m3
2022-05-27 03:00 4.16 µg/m3 94.81 µg/m3 2.95 µg/m3 22.89 °C N/A 1,000.69 mbar 3.54 m/s 151.68 Deg 0.08 µg/m3
2022-05-27 02:00 4.38 µg/m3 86.78 µg/m3 2.24 µg/m3 21.7 °C N/A 1,002.02 mbar 2.72 m/s 160.78 Deg 0.12 µg/m3
2022-05-27 01:00 6.68 µg/m3 81.36 µg/m3 3.94 µg/m3 21.37 °C N/A 1,002.73 mbar 2.6 m/s 160.18 Deg 0.02 µg/m3
2022-05-27 00:00 16.71 µg/m3 69.21 µg/m3 5.32 µg/m3 21.54 °C N/A 1,003.04 mbar 2.7 m/s 152.77 Deg 0.07 µg/m3
2022-05-26 23:00 11.6 µg/m3 76.07 µg/m3 4.69 µg/m3 22 °C N/A 1,003.72 mbar 2.34 m/s 140.77 Deg 0.13 µg/m3
2022-05-26 22:00 25.69 µg/m3 68.59 µg/m3 4.69 µg/m3 22.62 °C N/A 1,003.84 mbar 2.18 m/s 153.15 Deg 0.14 µg/m3
2022-05-26 21:00 10.61 µg/m3 79.93 µg/m3 5.62 µg/m3 22.82 °C N/A 1,003.62 mbar 2.12 m/s 152.2 Deg -0.11 µg/m3
2022-05-26 20:00 12.4 µg/m3 79.41 µg/m3 5.39 µg/m3 23.24 °C N/A 1,002.36 mbar 2.97 m/s 156.75 Deg -0.01 µg/m3
2022-05-26 19:00 14.96 µg/m3 74.72 µg/m3 6.17 µg/m3 23.7 °C N/A 1,001.95 mbar 3.34 m/s 152.02 Deg 0.07 µg/m3
2022-05-26 18:00 16.99 µg/m3 73.9 µg/m3 7.7 µg/m3 25.03 °C N/A 1,002.45 mbar 3.57 m/s 143.85 Deg 0.42 µg/m3
2022-05-26 17:00 22.15 µg/m3 74.26 µg/m3 7.72 µg/m3 26.39 °C N/A 1,003.48 mbar 2.95 m/s 157.6 Deg 2.32 µg/m3
2022-05-26 16:00 21.61 µg/m3 75.89 µg/m3 9.12 µg/m3 27.81 °C N/A 1,003.66 mbar 3.15 m/s 161.93 Deg 3.62 µg/m3
2022-05-26 15:00 14.33 µg/m3 82.25 µg/m3 10.78 µg/m3 28.66 °C N/A 1,003.94 mbar 4.29 m/s 168.5 Deg 2.64 µg/m3
2022-05-26 14:00 19.21 µg/m3 79.08 µg/m3 17.34 µg/m3 29.32 °C N/A 1,004.35 mbar 4.3 m/s 161.28 Deg 4.92 µg/m3
2022-05-26 13:00 20.62 µg/m3 78.01 µg/m3 19.33 µg/m3 29.9 °C N/A 1,004.59 mbar 4.05 m/s 161.87 Deg 5.14 µg/m3
2022-05-26 12:00 22.6 µg/m3 76.03 µg/m3 12.88 µg/m3 29.2 °C N/A 1,004.84 mbar 4.16 m/s 161.12 Deg 5.83 µg/m3
2022-05-26 11:00 19.62 µg/m3 80.43 µg/m3 8.7 µg/m3 28.65 °C N/A 1,004.88 mbar 3.73 m/s 149.17 Deg 4.2 µg/m3

It is to be noted that the data is provisional and subject to quality assurance procedures. For validated data kindly refer your request to contact.air@era.org.mt